Time,TemperatureF,DewpointF,PressureIn,WindDirection,WindDirectionDegrees,WindSpeedMPH,WindSpeedGustMPH,Humidity,HourlyPrecipIn,Conditions,Clouds,dailyrainin,SoftwareType,DateUTC
2013-05-24 00:00:00,59.2,58.3,29.77,SW,218,3.0,12.0,97,0.01,,,0.02,meteohub,2013-05-24 04:00:00,
2013-05-24 00:01:00,59.2,58.3,29.77,WSW,240,4.0,12.0,97,0.01,,,0.02,meteohub,2013-05-24 04:01:00,
2013-05-24 00:02:00,59.2,58.1,29.77,WSW,238,4.0,12.0,96,0.01,,,0.02,meteohub,2013-05-24 04:02:00,
2013-05-24 00:06:00,59.0,58.1,29.77,SSW,196,5.0,12.0,97,0.01,,,0.00,meteohub,2013-05-24 04:06:00,
2013-05-24 00:07:00,59.0,58.1,29.77,SSW,211,2.0,12.0,97,0.01,,,0.00,meteohub,2013-05-24 04:07:00,
2013-05-24 00:11:00,59.0,58.1,29.77,SSW,208,3.0,8.0,97,0.01,,,0.00,meteohub,2013-05-24 04:11:00,
2013-05-24 00:12:00,58.8,57.9,29.77,SSW,211,2.0,8.0,97,0.01,,,0.00,meteohub,2013-05-24 04:12:00,
2013-05-24 00:16:00,58.6,57.7,29.77,South,188,6.0,8.0,97,0.01,,,0.00,meteohub,2013-05-24 04:16:00,
2013-05-24 00:17:00,58.6,57.7,29.77,SW,216,4.0,8.0,97,0.01,,,0.00,meteohub,2013-05-24 04:17:00,
2013-05-24 00:18:00,58.5,57.6,29.76,SSW,202,7.0,8.0,97,0.01,,,0.00,meteohub,2013-05-24 04:18:00,
2013-05-24 00:21:00,58.3,57.4,29.76,SSW,193,5.0,8.0,97,0.01,,,0.00,meteohub,2013-05-24 04:21:00,
2013-05-24 00:22:00,58.3,57.4,29.76,South,190,3.0,8.0,97,0.01,,,0.00,meteohub,2013-05-24 04:22:00,
2013-05-24 00:23:00,58.1,57.2,29.76,SSW,208,2.0,8.0,97,0.01,,,0.00,meteohub,2013-05-24 04:23:00,
2013-05-24 00:26:00,57.9,57.0,29.76,SSE,151,6.0,9.0,97,0.01,,,0.00,meteohub,2013-05-24 04:26:00,
2013-05-24 00:27:00,57.9,57.0,29.76,South,182,3.0,9.0,97,0.01,,,0.00,meteohub,2013-05-24 04:27:00,
2013-05-24 00:28:00,57.9,57.0,29.76,South,187,2.0,9.0,97,0.01,,,0.00,meteohub,2013-05-24 04:28:00,
2013-05-24 00:32:00,57.4,56.3,29.76,SSW,202,4.0,9.0,96,0.01,,,0.00,meteohub,2013-05-24 04:32:00,
2013-05-24 00:33:00,57.4,56.3,29.76,South,187,3.0,9.0,96,0.01,,,0.00,meteohub,2013-05-24 04:33:00,
2013-05-24 00:34:00,57.2,56.1,29.75,South,187,1.0,9.0,96,0.01,,,0.00,meteohub,2013-05-24 04:34:00,
2013-05-24 00:37:00,57.0,56.1,29.75,SSW,198,4.0,9.0,97,0.01,,,0.00,meteohub,2013-05-24 04:37:00,
2013-05-24 00:38:00,57.0,56.1,29.75,South,174,1.0,9.0,97,0.01,,,0.00,meteohub,2013-05-24 04:38:00,
2013-05-24 00:39:00,57.0,56.1,29.75,South,189,1.0,9.0,97,0.01,,,0.00,meteohub,2013-05-24 04:39:00,
2013-05-24 00:40:00,57.0,56.1,29.75,South,189,2.0,9.0,97,0.01,,,0.00,meteohub,2013-05-24 04:40:00,
2013-05-24 00:42:00,57.0,56.1,29.75,SSW,192,2.0,9.0,97,0.01,,,0.00,meteohub,2013-05-24 04:42:00,
2013-05-24 00:44:00,57.0,56.1,29.75,SSW,200,4.0,9.0,97,0.01,,,0.00,meteohub,2013-05-24 04:44:00,
2013-05-24 00:45:00,57.0,56.1,29.75,SSW,208,3.0,7.0,97,0.01,,,0.00,meteohub,2013-05-24 04:45:00,
2013-05-24 00:47:00,57.0,56.1,29.75,SSW,211,2.0,7.0,97,0.01,,,0.00,meteohub,2013-05-24 04:47:00,
2013-05-24 00:48:00,57.0,56.1,29.75,SSW,209,2.0,7.0,97,0.01,,,0.00,meteohub,2013-05-24 04:48:00,
2013-05-24 00:49:00,57.0,56.1,29.75,SSW,208,1.0,7.0,97,0.01,,,0.00,meteohub,2013-05-24 04:49:00,
2013-05-24 00:50:00,57.0,56.1,29.75,SW,219,1.0,7.0,97,0.01,,,0.00,meteohub,2013-05-24 04:50:00,
2013-05-24 00:53:00,57.4,56.5,29.74,SW,225,3.0,7.0,97,0.01,,,0.00,meteohub,2013-05-24 04:53:00,
2013-05-24 00:54:00,57.4,56.5,29.75,SSW,205,3.0,7.0,97,0.01,,,0.00,meteohub,2013-05-24 04:54:00,
2013-05-24 00:55:00,57.6,56.7,29.75,SSW,205,4.0,7.0,97,0.01,,,0.00,meteohub,2013-05-24 04:55:00,
2013-05-24 00:56:00,57.6,56.7,29.75,SSW,198,1.0,7.0,97,0.01,,,0.00,meteohub,2013-05-24 04:56:00,
2013-05-24 00:58:00,57.6,56.7,29.74,SW,222,3.0,7.0,97,0.01,,,0.00,meteohub,2013-05-24 04:58:00,
2013-05-24 01:00:00,57.7,56.8,29.74,SSW,210,3.0,7.0,97,0.01,,,0.00,meteohub,2013-05-24 05:00:00,
2013-05-24 01:02:00,57.9,57.0,29.74,WSW,237,2.0,7.0,97,0.01,,,0.00,meteohub,2013-05-24 05:02:00,
2013-05-24 01:03:00,57.9,57.0,29.74,SSW,202,2.0,7.0,97,0.00,,,0.00,meteohub,2013-05-24 05:03:00,
2013-05-24 01:04:00,58.1,57.2,29.74,SSW,195,8.0,8.0,97,0.00,,,0.00,meteohub,2013-05-24 05:04:00,
2013-05-24 01:05:00,58.3,57.4,29.74,SW,227,2.0,6.0,97,0.00,,,0.00,meteohub,2013-05-24 05:05:00,
2013-05-24 01:06:00,58.3,57.7,29.74,SSW,200,4.0,6.0,98,0.00,,,0.00,meteohub,2013-05-24 05:06:00,
2013-05-24 01:07:00,58.5,57.9,29.74,SW,215,4.0,6.0,98,0.00,,,0.00,meteohub,2013-05-24 05:07:00,
2013-05-24 01:08:00,58.6,58.1,29.74,SW,221,6.0,6.0,98,0.00,,,0.00,meteohub,2013-05-24 05:08:00,
2013-05-24 01:09:00,58.8,58.3,29.74,West,263,4.0,6.0,98,0.00,,,0.00,meteohub,2013-05-24 05:09:00,
2013-05-24 01:10:00,59.0,58.5,29.74,SW,225,3.0,6.0,98,0.00,,,0.00,meteohub,2013-05-24 05:10:00,
2013-05-24 01:12:00,59.5,59.0,29.74,South,191,5.0,6.0,98,0.00,,,0.00,meteohub,2013-05-24 05:12:00,
2013-05-24 01:13:00,60.1,59.5,29.74,SSW,209,5.0,6.0,98,0.00,,,0.00,meteohub,2013-05-24 05:13:00,
2013-05-24 01:15:00,60.6,60.1,29.74,SSW,202,6.0,6.0,98,0.00,,,0.00,meteohub,2013-05-24 05:15:00,
2013-05-24 01:17:00,61.5,61.0,29.74,SSW,196,4.0,6.0,98,0.00,,,0.00,meteohub,2013-05-24 05:17:00,
2013-05-24 01:20:00,62.1,61.5,29.74,South,187,8.0,8.0,98,0.00,,,0.00,meteohub,2013-05-24 05:20:00,
2013-05-24 01:22:00,62.8,62.2,29.73,SSW,205,5.0,6.0,98,0.00,,,0.00,meteohub,2013-05-24 05:22:00,
2013-05-24 01:23:00,62.8,62.2,29.73,SW,236,5.0,6.0,98,0.00,,,0.00,meteohub,2013-05-24 05:23:00,
2013-05-24 01:25:00,63.1,62.6,29.73,SW,232,6.0,12.0,98,0.00,,,0.00,meteohub,2013-05-24 05:25:00,
2013-05-24 01:26:00,63.3,62.8,29.73,SSW,213,6.0,12.0,98,0.00,,,0.00,meteohub,2013-05-24 05:26:00,
2013-05-24 01:28:00,63.5,63.0,29.73,WSW,240,6.0,12.0,98,0.00,,,0.00,meteohub,2013-05-24 05:28:00,
2013-05-24 01:30:00,63.7,63.1,29.73,SSW,207,2.0,12.0,98,0.00,,,0.00,meteohub,2013-05-24 05:30:00,
2013-05-24 01:31:00,63.7,63.1,29.73,NW,304,7.0,15.0,98,0.00,,,0.00,meteohub,2013-05-24 05:31:00,
2013-05-24 01:33:00,63.7,63.1,29.73,WSW,238,8.0,15.0,98,0.00,,,0.00,meteohub,2013-05-24 05:33:00,
2013-05-24 01:35:00,63.7,63.1,29.73,SSW,209,5.0,15.0,98,0.00,,,0.00,meteohub,2013-05-24 05:35:00,
2013-05-24 01:36:00,63.7,63.1,29.73,SSW,208,4.0,15.0,98,0.00,,,0.00,meteohub,2013-05-24 05:36:00,
2013-05-24 01:38:00,63.7,63.1,29.73,SSW,209,6.0,15.0,98,0.00,,,0.00,meteohub,2013-05-24 05:38:00,
2013-05-24 01:39:00,63.7,63.1,29.73,WSW,244,7.0,15.0,98,0.00,,,0.00,meteohub,2013-05-24 05:39:00,
2013-05-24 01:41:00,63.7,63.1,29.73,SSW,205,6.0,15.0,98,0.00,,,0.00,meteohub,2013-05-24 05:41:00,
2013-05-24 01:44:00,63.7,63.1,29.73,SSW,207,5.0,15.0,98,0.00,,,0.00,meteohub,2013-05-24 05:44:00,
2013-05-24 01:46:00,63.7,63.1,29.73,SW,218,7.0,13.0,98,0.00,,,0.00,meteohub,2013-05-24 05:46:00,
2013-05-24 01:47:00,63.7,63.1,29.73,WNW,286,9.0,13.0,98,0.00,,,0.00,meteohub,2013-05-24 05:47:00,
2013-05-24 01:49:00,63.9,63.3,29.73,WSW,238,6.0,13.0,98,0.00,,,0.00,meteohub,2013-05-24 05:49:00,
2013-05-24 01:50:00,63.9,63.3,29.73,WSW,248,8.0,13.0,98,0.00,,,0.00,meteohub,2013-05-24 05:50:00,
2013-05-24 01:51:00,63.9,63.3,29.73,SSW,204,6.0,13.0,98,0.00,,,0.00,meteohub,2013-05-24 05:51:00,
2013-05-24 01:52:00,63.9,63.3,29.72,WSW,245,12.0,13.0,98,0.00,,,0.00,meteohub,2013-05-24 05:52:00,
2013-05-24 01:54:00,63.9,63.3,29.72,SW,236,4.0,13.0,98,0.00,,,0.00,meteohub,2013-05-24 05:54:00,
2013-05-24 01:55:00,63.9,63.3,29.72,WSW,244,10.0,13.0,98,0.00,,,0.00,meteohub,2013-05-24 05:55:00,
2013-05-24 01:57:00,63.9,63.3,29.72,WSW,247,8.0,13.0,98,0.00,,,0.00,meteohub,2013-05-24 05:57:00,
2013-05-24 02:00:00,63.7,63.1,29.72,SW,230,9.0,13.0,98,0.00,,,0.00,meteohub,2013-05-24 06:00:00,
2013-05-24 02:02:00,63.7,62.8,29.72,WSW,258,6.0,13.0,97,0.00,,,0.00,meteohub,2013-05-24 06:02:00,
2013-05-24 02:05:00,63.7,62.8,29.72,SSW,207,5.0,13.0,97,0.00,,,0.00,meteohub,2013-05-24 06:05:00,
2013-05-24 02:07:00,63.5,63.0,29.72,WSW,248,4.0,13.0,98,0.00,,,0.00,meteohub,2013-05-24 06:07:00,
2013-05-24 02:08:00,63.5,63.0,29.72,SW,223,8.0,13.0,98,0.00,,,0.00,meteohub,2013-05-24 06:08:00,
2013-05-24 02:10:00,63.3,62.8,29.72,SSW,205,6.0,13.0,98,0.00,,,0.00,meteohub,2013-05-24 06:10:00,
2013-05-24 02:11:00,63.3,62.8,29.72,SSW,211,6.0,13.0,98,0.00,,,0.00,meteohub,2013-05-24 06:11:00,
2013-05-24 02:13:00,63.3,62.8,29.72,WSW,246,7.0,13.0,98,0.00,,,0.00,meteohub,2013-05-24 06:13:00,
2013-05-24 02:15:00,63.1,62.2,29.72,SW,215,3.0,12.0,97,0.00,,,0.00,meteohub,2013-05-24 06:15:00,
2013-05-24 02:16:00,63.1,62.2,29.72,SSW,210,4.0,12.0,97,0.00,,,0.00,meteohub,2013-05-24 06:16:00,
2013-05-24 02:18:00,63.1,62.2,29.72,SW,215,5.0,12.0,97,0.00,,,0.00,meteohub,2013-05-24 06:18:00,
2013-05-24 02:20:00,63.1,62.6,29.71,SSW,204,6.0,13.0,98,0.00,,,0.00,meteohub,2013-05-24 06:20:00,
2013-05-24 02:21:00,63.1,62.6,29.71,SSW,203,6.0,13.0,98,0.00,,,0.00,meteohub,2013-05-24 06:21:00,
2013-05-24 02:23:00,63.1,62.6,29.71,SSW,212,4.0,13.0,98,0.00,,,0.00,meteohub,2013-05-24 06:23:00,
2013-05-24 02:26:00,63.1,62.6,29.71,WSW,239,4.0,15.0,98,0.00,,,0.00,meteohub,2013-05-24 06:26:00,
2013-05-24 02:28:00,63.1,62.6,29.72,SW,231,5.0,15.0,98,0.00,,,0.00,meteohub,2013-05-24 06:28:00,
2013-05-24 02:29:00,63.1,62.6,29.72,SSW,209,6.0,15.0,98,0.00,,,0.00,meteohub,2013-05-24 06:29:00,
2013-05-24 02:31:00,63.1,62.6,29.72,SW,230,6.0,15.0,98,0.00,,,0.00,meteohub,2013-05-24 06:31:00,
2013-05-24 02:32:00,63.1,62.6,29.72,SW,219,3.0,15.0,98,0.00,,,0.00,meteohub,2013-05-24 06:32:00,
2013-05-24 02:33:00,63.1,62.6,29.72,WSW,251,7.0,15.0,98,0.00,,,0.00,meteohub,2013-05-24 06:33:00,
2013-05-24 02:34:00,63.1,62.6,29.72,SW,228,2.0,15.0,98,0.00,,,0.00,meteohub,2013-05-24 06:34:00,
2013-05-24 02:35:00,63.1,62.6,29.72,SW,231,4.0,15.0,98,0.00,,,0.00,meteohub,2013-05-24 06:35:00,
2013-05-24 02:37:00,63.1,62.6,29.72,WSW,240,5.0,15.0,98,0.00,,,0.00,meteohub,2013-05-24 06:37:00,
2013-05-24 02:38:00,63.3,62.8,29.72,WSW,237,11.0,15.0,98,0.00,,,0.00,meteohub,2013-05-24 06:38:00,
2013-05-24 02:39:00,63.3,62.8,29.72,WSW,242,6.0,15.0,98,0.00,,,0.00,meteohub,2013-05-24 06:39:00,
2013-05-24 02:40:00,63.3,62.8,29.72,SW,231,5.0,15.0,98,0.00,,,0.00,meteohub,2013-05-24 06:40:00,
2013-05-24 02:42:00,63.3,62.8,29.72,SSW,205,11.0,11.0,98,0.00,,,0.00,meteohub,2013-05-24 06:42:00,
2013-05-24 02:44:00,63.3,62.8,29.72,SW,226,13.0,13.0,98,0.00,,,0.00,meteohub,2013-05-24 06:44:00,
2013-05-24 02:45:00,63.3,62.8,29.72,SW,232,6.0,16.0,98,0.00,,,0.00,meteohub,2013-05-24 06:45:00,
2013-05-24 02:48:00,63.5,63.0,29.72,SW,235,7.0,16.0,98,0.00,,,0.00,meteohub,2013-05-24 06:48:00,
2013-05-24 02:49:00,63.5,63.0,29.72,SSW,213,7.0,16.0,98,0.00,,,0.00,meteohub,2013-05-24 06:49:00,
2013-05-24 02:50:00,63.5,63.0,29.72,West,264,8.0,16.0,98,0.00,,,0.00,meteohub,2013-05-24 06:50:00,
2013-05-24 02:53:00,63.7,63.1,29.73,SW,227,7.0,16.0,98,0.00,,,0.00,meteohub,2013-05-24 06:53:00,
2013-05-24 02:54:00,63.7,63.1,29.73,WSW,254,7.0,16.0,98,0.00,,,0.00,meteohub,2013-05-24 06:54:00,
2013-05-24 02:55:00,63.9,63.3,29.73,SW,228,7.0,16.0,98,0.00,,,0.00,meteohub,2013-05-24 06:55:00,
2013-05-24 02:58:00,63.9,63.3,29.73,West,265,7.0,16.0,98,0.00,,,0.00,meteohub,2013-05-24 06:58:00,
2013-05-24 02:59:00,63.9,63.3,29.73,WSW,241,9.0,16.0,98,0.00,,,0.00,meteohub,2013-05-24 06:59:00,
2013-05-24 03:00:00,64.0,63.5,29.73,SW,233,11.0,15.0,98,0.00,,,0.00,meteohub,2013-05-24 07:00:00,
2013-05-24 03:01:00,64.0,63.5,29.72,SW,232,7.0,15.0,98,0.00,,,0.00,meteohub,2013-05-24 07:01:00,
2013-05-24 03:04:00,64.2,63.7,29.72,SW,234,7.0,15.0,98,0.00,,,0.00,meteohub,2013-05-24 07:04:00,
2013-05-24 03:06:00,64.6,64.0,29.72,WSW,252,13.0,15.0,98,0.00,,,0.00,meteohub,2013-05-24 07:06:00,
2013-05-24 03:09:00,64.8,64.2,29.72,SW,235,11.0,15.0,98,0.00,,,0.00,meteohub,2013-05-24 07:09:00,
2013-05-24 03:10:00,64.9,64.4,29.72,WSW,249,10.0,15.0,98,0.00,,,0.00,meteohub,2013-05-24 07:10:00,
2013-05-24 03:11:00,64.9,64.4,29.72,WSW,241,11.0,17.0,98,0.00,,,0.00,meteohub,2013-05-24 07:11:00,
2013-05-24 03:14:00,64.9,64.4,29.72,WSW,238,8.0,17.0,98,0.00,,,0.00,meteohub,2013-05-24 07:14:00,
2013-05-24 03:15:00,64.9,64.4,29.72,SW,232,5.0,17.0,98,0.00,,,0.00,meteohub,2013-05-24 07:15:00,
2013-05-24 03:16:00,64.9,64.4,29.72,WSW,258,8.0,17.0,98,0.00,,,0.00,meteohub,2013-05-24 07:16:00,
2013-05-24 03:17:00,64.9,64.4,29.72,SW,236,11.0,17.0,98,0.00,,,0.00,meteohub,2013-05-24 07:17:00,
2013-05-24 03:19:00,64.9,64.4,29.72,West,269,8.0,17.0,98,0.00,,,0.00,meteohub,2013-05-24 07:19:00,
2013-05-24 03:20:00,64.9,64.4,29.71,WSW,250,7.0,17.0,98,0.00,,,0.00,meteohub,2013-05-24 07:20:00,
2013-05-24 03:21:00,64.9,64.4,29.72,WSW,240,6.0,17.0,98,0.00,,,0.00,meteohub,2013-05-24 07:21:00,
2013-05-24 03:22:00,64.9,64.4,29.72,West,267,7.0,17.0,98,0.00,,,0.00,meteohub,2013-05-24 07:22:00,
2013-05-24 03:24:00,64.9,64.4,29.72,WSW,253,10.0,17.0,98,0.00,,,0.00,meteohub,2013-05-24 07:24:00,
2013-05-24 03:25:00,64.9,64.4,29.72,WSW,249,10.0,17.0,98,0.00,,,0.00,meteohub,2013-05-24 07:25:00,
2013-05-24 03:26:00,64.9,64.4,29.72,SW,230,7.0,17.0,98,0.00,,,0.00,meteohub,2013-05-24 07:26:00,
2013-05-24 03:27:00,64.9,64.4,29.72,SW,223,7.0,17.0,98,0.00,,,0.00,meteohub,2013-05-24 07:27:00,
2013-05-24 03:30:00,64.9,64.4,29.72,SW,225,7.0,17.0,98,0.00,,,0.00,meteohub,2013-05-24 07:30:00,
2013-05-24 03:31:00,64.9,64.4,29.72,WSW,242,10.0,14.0,98,0.00,,,0.00,meteohub,2013-05-24 07:31:00,
2013-05-24 03:32:00,64.9,64.4,29.72,SW,218,4.0,14.0,98,0.00,,,0.00,meteohub,2013-05-24 07:32:00,
2013-05-24 03:35:00,64.9,64.4,29.72,WSW,252,7.0,14.0,98,0.02,,,0.01,meteohub,2013-05-24 07:35:00,
2013-05-24 03:36:00,64.9,64.4,29.72,WSW,252,10.0,11.0,98,0.02,,,0.01,meteohub,2013-05-24 07:36:00,
2013-05-24 03:37:00,64.9,64.4,29.72,WSW,253,9.0,11.0,98,0.02,,,0.01,meteohub,2013-05-24 07:37:00,
2013-05-24 03:41:00,64.8,64.2,29.72,SSW,210,7.0,12.0,98,0.03,,,0.03,meteohub,2013-05-24 07:41:00,
2013-05-24 03:42:00,64.8,64.2,29.72,WSW,243,5.0,12.0,98,0.03,,,0.03,meteohub,2013-05-24 07:42:00,
2013-05-24 03:43:00,64.8,64.2,29.72,WSW,239,3.0,12.0,98,0.03,,,0.03,meteohub,2013-05-24 07:43:00,
2013-05-24 03:46:00,64.8,64.2,29.72,WSW,239,4.0,12.0,98,0.04,,,0.04,meteohub,2013-05-24 07:46:00,
2013-05-24 03:47:00,64.8,64.2,29.72,WSW,257,4.0,12.0,98,0.04,,,0.04,meteohub,2013-05-24 07:47:00,
2013-05-24 03:48:00,64.8,64.2,29.72,West,265,4.0,12.0,98,0.04,,,0.04,meteohub,2013-05-24 07:48:00,
2013-05-24 03:51:00,64.8,64.2,29.72,SW,227,7.0,14.0,98,0.04,,,0.04,meteohub,2013-05-24 07:51:00,
2013-05-24 03:52:00,64.8,64.2,29.73,SW,234,9.0,14.0,98,0.04,,,0.04,meteohub,2013-05-24 07:52:00,
2013-05-24 03:53:00,64.8,64.2,29.73,WSW,248,10.0,14.0,98,0.04,,,0.04,meteohub,2013-05-24 07:53:00,
2013-05-24 03:56:00,64.8,64.2,29.73,WSW,248,10.0,14.0,98,0.05,,,0.05,meteohub,2013-05-24 07:56:00,
2013-05-24 03:57:00,64.8,64.2,29.73,WSW,254,5.0,14.0,98,0.05,,,0.05,meteohub,2013-05-24 07:57:00,
2013-05-24 03:58:00,64.8,64.2,29.72,SSW,213,3.0,14.0,98,0.05,,,0.05,meteohub,2013-05-24 07:58:00,
2013-05-24 04:01:00,64.8,63.9,29.71,WSW,243,5.0,16.0,97,0.07,,,0.07,meteohub,2013-05-24 08:01:00,
2013-05-24 04:02:00,64.8,63.9,29.71,SSW,200,3.0,16.0,97,0.07,,,0.07,meteohub,2013-05-24 08:02:00,
2013-05-24 04:03:00,64.8,63.9,29.71,West,261,3.0,16.0,97,0.07,,,0.07,meteohub,2013-05-24 08:03:00,
2013-05-24 04:04:00,64.8,63.9,29.71,SW,222,4.0,16.0,97,0.07,,,0.07,meteohub,2013-05-24 08:04:00,
2013-05-24 04:06:00,64.8,64.2,29.71,WSW,245,1.0,16.0,98,0.07,,,0.07,meteohub,2013-05-24 08:06:00,
2013-05-24 04:07:00,64.8,64.2,29.71,SW,234,2.0,16.0,98,0.07,,,0.07,meteohub,2013-05-24 08:07:00,
2013-05-24 04:08:00,64.8,63.9,29.71,SW,224,1.0,16.0,97,0.07,,,0.07,meteohub,2013-05-24 08:08:00,
2013-05-24 04:09:00,64.8,63.9,29.71,SSW,207,3.0,16.0,97,0.07,,,0.07,meteohub,2013-05-24 08:09:00,
2013-05-24 04:10:00,64.8,63.9,29.71,SW,229,2.0,16.0,97,0.07,,,0.07,meteohub,2013-05-24 08:10:00,
2013-05-24 04:11:00,64.8,63.9,29.71,SSW,205,0.0,16.0,97,0.07,,,0.07,meteohub,2013-05-24 08:11:00,
2013-05-24 04:13:00,63.9,62.8,29.70,SSE,165,1.0,16.0,96,0.07,,,0.07,meteohub,2013-05-24 08:13:00,
2013-05-24 04:14:00,63.5,61.7,29.70,SE,146,1.0,16.0,94,0.07,,,0.07,meteohub,2013-05-24 08:14:00,
2013-05-24 04:15:00,62.4,60.4,29.70,ESE,112,1.0,7.0,93,0.08,,,0.08,meteohub,2013-05-24 08:15:00,
2013-05-24 04:17:00,61.2,59.2,29.70,SSE,161,4.0,7.0,93,0.08,,,0.08,meteohub,2013-05-24 08:17:00,
2013-05-24 04:19:00,59.9,58.1,29.71,South,185,2.0,7.0,94,0.08,,,0.08,meteohub,2013-05-24 08:19:00,
2013-05-24 04:20:00,59.5,57.7,29.71,SSW,205,3.0,7.0,94,0.08,,,0.08,meteohub,2013-05-24 08:20:00,
2013-05-24 04:23:00,58.8,57.7,29.71,SSW,209,0.0,6.0,96,0.08,,,0.08,meteohub,2013-05-24 08:23:00,
2013-05-24 04:24:00,58.8,57.9,29.71,SSW,207,3.0,6.0,97,0.08,,,0.08,meteohub,2013-05-24 08:24:00,
2013-05-24 04:25:00,59.0,58.1,29.71,SSW,209,0.0,5.0,97,0.08,,,0.08,meteohub,2013-05-24 08:25:00,
2013-05-24 04:26:00,59.0,58.1,29.71,SSW,209,1.0,5.0,97,0.08,,,0.08,meteohub,2013-05-24 08:26:00,
2013-05-24 04:29:00,59.4,58.5,29.71,SSW,209,0.0,5.0,97,0.08,,,0.08,meteohub,2013-05-24 08:29:00,
2013-05-24 04:30:00,59.4,58.5,29.71,SSW,209,0.0,5.0,97,0.08,,,0.08,meteohub,2013-05-24 08:30:00,
2013-05-24 04:31:00,59.4,58.5,29.71,SSW,209,2.0,5.0,97,0.08,,,0.08,meteohub,2013-05-24 08:31:00,
2013-05-24 04:34:00,59.7,59.2,29.72,SSW,209,1.0,5.0,98,0.08,,,0.08,meteohub,2013-05-24 08:34:00,
2013-05-24 04:35:00,59.9,59.4,29.72,SSW,209,1.0,5.0,98,0.08,,,0.08,meteohub,2013-05-24 08:35:00,
2013-05-24 04:36:00,60.1,59.5,29.72,SSW,209,1.0,3.0,98,0.06,,,0.08,meteohub,2013-05-24 08:36:00,
2013-05-24 04:37:00,60.3,59.7,29.72,SSW,209,0.0,3.0,98,0.06,,,0.08,meteohub,2013-05-24 08:37:00,
2013-05-24 04:39:00,60.4,59.9,29.72,SSW,209,0.0,3.0,98,0.06,,,0.08,meteohub,2013-05-24 08:39:00,
2013-05-24 04:40:00,60.4,59.9,29.72,South,190,3.0,3.0,98,0.04,,,0.08,meteohub,2013-05-24 08:40:00,
2013-05-24 04:41:00,60.3,59.7,29.72,SSE,167,4.0,4.0,98,0.04,,,0.08,meteohub,2013-05-24 08:41:00,
2013-05-24 04:42:00,59.7,58.8,29.72,SW,221,3.0,3.0,97,0.04,,,0.08,meteohub,2013-05-24 08:42:00,
2013-05-24 04:45:00,59.0,57.9,29.72,SSW,205,1.0,2.0,96,0.04,,,0.08,meteohub,2013-05-24 08:45:00,
2013-05-24 04:46:00,59.2,58.3,29.72,SSW,205,0.0,5.0,97,0.04,,,0.08,meteohub,2013-05-24 08:46:00,
2013-05-24 04:47:00,59.2,58.3,29.72,SSW,205,0.0,5.0,97,0.04,,,0.08,meteohub,2013-05-24 08:47:00,
2013-05-24 04:48:00,59.4,58.5,29.72,SSW,205,1.0,5.0,97,0.04,,,0.08,meteohub,2013-05-24 08:48:00,
2013-05-24 04:50:00,59.7,59.2,29.72,SSW,205,1.0,5.0,98,0.04,,,0.08,meteohub,2013-05-24 08:50:00,
2013-05-24 04:51:00,59.7,59.2,29.72,SSW,205,0.0,5.0,98,0.04,,,0.08,meteohub,2013-05-24 08:51:00,
2013-05-24 04:52:00,60.1,59.5,29.72,SSW,205,0.0,5.0,98,0.04,,,0.08,meteohub,2013-05-24 08:52:00,
2013-05-24 04:53:00,60.3,59.7,29.72,SSW,205,1.0,5.0,98,0.04,,,0.08,meteohub,2013-05-24 08:53:00,
2013-05-24 04:55:00,61.3,60.8,29.71,WSW,242,4.0,5.0,98,0.04,,,0.08,meteohub,2013-05-24 08:55:00,
2013-05-24 04:57:00,62.1,61.7,29.71,West,259,4.0,5.0,99,0.02,,,0.08,meteohub,2013-05-24 08:57:00,
2013-05-24 04:58:00,62.4,62.1,29.71,West,271,4.0,5.0,99,0.02,,,0.08,meteohub,2013-05-24 08:58:00,
2013-05-24 05:00:00,63.3,63.0,29.71,WSW,241,3.0,5.0,99,0.02,,,0.08,meteohub,2013-05-24 09:00:00,
2013-05-24 05:02:00,63.5,63.1,29.71,SW,231,5.0,8.0,99,0.01,,,0.08,meteohub,2013-05-24 09:02:00,
2013-05-24 05:03:00,63.9,63.5,29.71,SW,234,3.0,8.0,99,0.01,,,0.08,meteohub,2013-05-24 09:03:00,
2013-05-24 05:04:00,63.9,63.5,29.71,WSW,242,2.0,8.0,99,0.01,,,0.08,meteohub,2013-05-24 09:04:00,
2013-05-24 05:06:00,64.0,63.5,29.71,WSW,256,4.0,8.0,98,0.01,,,0.08,meteohub,2013-05-24 09:06:00,
2013-05-24 05:07:00,64.0,63.5,29.71,WSW,249,3.0,8.0,98,0.01,,,0.08,meteohub,2013-05-24 09:07:00,
2013-05-24 05:09:00,64.2,63.7,29.71,WSW,238,2.0,8.0,98,0.01,,,0.08,meteohub,2013-05-24 09:09:00,
2013-05-24 05:12:00,64.2,63.7,29.71,WSW,246,4.0,8.0,98,0.00,,,0.08,meteohub,2013-05-24 09:12:00,
2013-05-24 05:13:00,64.2,63.7,29.71,WSW,242,4.0,8.0,98,0.00,,,0.08,meteohub,2013-05-24 09:13:00,
2013-05-24 05:14:00,64.2,63.7,29.71,SW,236,3.0,8.0,98,0.00,,,0.08,meteohub,2013-05-24 09:14:00,
2013-05-24 05:15:00,64.2,63.7,29.71,WSW,238,2.0,8.0,98,0.00,,,0.08,meteohub,2013-05-24 09:15:00,
2013-05-24 05:17:00,64.4,63.9,29.71,WSW,252,4.0,8.0,98,0.00,,,0.08,meteohub,2013-05-24 09:17:00,
2013-05-24 05:18:00,64.4,63.9,29.71,WSW,251,1.0,8.0,98,0.00,,,0.08,meteohub,2013-05-24 09:18:00,
2013-05-24 05:19:00,64.6,64.0,29.71,WSW,251,0.0,8.0,98,0.00,,,0.08,meteohub,2013-05-24 09:19:00,
2013-05-24 05:20:00,64.6,64.0,29.71,WSW,251,1.0,8.0,98,0.00,,,0.08,meteohub,2013-05-24 09:20:00,
2013-05-24 05:23:00,64.6,63.7,29.71,WSW,253,0.0,8.0,97,0.00,,,0.08,meteohub,2013-05-24 09:23:00,
2013-05-24 05:24:00,64.6,63.7,29.71,WSW,250,2.0,8.0,97,0.00,,,0.08,meteohub,2013-05-24 09:24:00,
2013-05-24 05:25:00,64.6,63.7,29.71,WSW,250,0.0,8.0,97,0.00,,,0.08,meteohub,2013-05-24 09:25:00,
2013-05-24 05:28:00,64.6,63.7,29.71,SW,236,3.0,8.0,97,0.00,,,0.08,meteohub,2013-05-24 09:28:00,
2013-05-24 05:29:00,64.6,63.7,29.71,SW,235,2.0,8.0,97,0.00,,,0.08,meteohub,2013-05-24 09:29:00,
2013-05-24 05:30:00,64.6,63.7,29.71,SW,235,2.0,8.0,97,0.00,,,0.08,meteohub,2013-05-24 09:30:00,
2013-05-24 05:33:00,64.6,63.7,29.71,SW,235,1.0,6.0,97,0.00,,,0.08,meteohub,2013-05-24 09:33:00,
2013-05-24 05:34:00,64.6,63.7,29.71,SW,235,0.0,6.0,97,0.00,,,0.08,meteohub,2013-05-24 09:34:00,
2013-05-24 05:35:00,64.6,63.7,29.71,SW,235,0.0,6.0,97,0.00,,,0.08,meteohub,2013-05-24 09:35:00,
2013-05-24 05:36:00,64.6,63.7,29.71,SW,235,0.0,6.0,97,0.00,,,0.08,meteohub,2013-05-24 09:36:00,
2013-05-24 05:38:00,64.6,63.7,29.71,SW,235,0.0,4.0,97,0.00,,,0.08,meteohub,2013-05-24 09:38:00,
2013-05-24 05:40:00,64.6,63.7,29.71,SW,235,0.0,4.0,97,0.00,,,0.08,meteohub,2013-05-24 09:40:00,
2013-05-24 05:41:00,64.6,64.0,29.71,SW,235,1.0,4.0,98,0.00,,,0.08,meteohub,2013-05-24 09:41:00,
2013-05-24 05:42:00,64.6,64.0,29.71,SW,235,1.0,4.0,98,0.00,,,0.08,meteohub,2013-05-24 09:42:00,
2013-05-24 05:44:00,64.8,64.2,29.71,SW,235,0.0,4.0,98,0.00,,,0.08,meteohub,2013-05-24 09:44:00,
2013-05-24 05:45:00,64.6,64.0,29.71,SW,235,2.0,4.0,98,0.00,,,0.08,meteohub,2013-05-24 09:45:00,
2013-05-24 05:46:00,64.8,64.2,29.71,SW,235,2.0,4.0,98,0.00,,,0.08,meteohub,2013-05-24 09:46:00,
2013-05-24 05:48:00,64.6,63.7,29.71,SW,236,2.0,4.0,97,0.00,,,0.08,meteohub,2013-05-24 09:48:00,
2013-05-24 05:50:00,64.6,63.7,29.71,SW,236,0.0,4.0,97,0.00,,,0.08,meteohub,2013-05-24 09:50:00,
2013-05-24 05:51:00,64.6,63.7,29.71,WSW,245,2.0,3.0,97,0.00,,,0.08,meteohub,2013-05-24 09:51:00,
2013-05-24 05:52:00,64.6,63.7,29.72,WSW,246,4.0,4.0,97,0.00,,,0.08,meteohub,2013-05-24 09:52:00,
2013-05-24 05:53:00,64.6,63.7,29.72,WSW,249,2.0,3.0,97,0.00,,,0.08,meteohub,2013-05-24 09:53:00,
2013-05-24 05:55:00,64.6,63.7,29.72,West,265,3.0,3.0,97,0.00,,,0.08,meteohub,2013-05-24 09:55:00,
2013-05-24 05:56:00,64.6,63.7,29.71,WNW,290,1.0,5.0,97,0.00,,,0.08,meteohub,2013-05-24 09:56:00,
2013-05-24 05:58:00,64.6,63.7,29.71,WSW,254,2.0,5.0,97,0.00,,,0.08,meteohub,2013-05-24 09:58:00,
2013-05-24 06:01:00,64.6,63.7,29.72,WSW,241,5.0,5.0,97,0.00,,,0.08,meteohub,2013-05-24 10:01:00,
2013-05-24 06:02:00,64.6,63.7,29.72,West,266,7.0,7.0,97,0.00,,,0.08,meteohub,2013-05-24 10:02:00,
2013-05-24 06:03:00,64.4,63.5,29.72,SW,227,3.0,5.0,97,0.00,,,0.08,meteohub,2013-05-24 10:03:00,
2013-05-24 06:04:00,64.6,63.7,29.72,WSW,250,5.0,5.0,97,0.00,,,0.08,meteohub,2013-05-24 10:04:00,
2013-05-24 06:06:00,64.4,63.5,29.73,WSW,240,3.0,5.0,97,0.00,,,0.08,meteohub,2013-05-24 10:06:00,
2013-05-24 06:07:00,64.4,63.5,29.73,WSW,243,4.0,7.0,97,0.00,,,0.08,meteohub,2013-05-24 10:07:00,
2013-05-24 06:08:00,64.4,63.5,29.72,WSW,243,4.0,7.0,97,0.00,,,0.08,meteohub,2013-05-24 10:08:00,
2013-05-24 06:10:00,64.4,63.5,29.72,WSW,252,2.0,7.0,97,0.00,,,0.08,meteohub,2013-05-24 10:10:00,
2013-05-24 06:11:00,64.6,63.7,29.72,WSW,243,3.0,8.0,97,0.00,,,0.08,meteohub,2013-05-24 10:11:00,
2013-05-24 06:12:00,64.6,63.7,29.72,WSW,242,2.0,8.0,97,0.00,,,0.08,meteohub,2013-05-24 10:12:00,
2013-05-24 06:13:00,64.6,63.7,29.73,WSW,241,2.0,8.0,97,0.00,,,0.08,meteohub,2013-05-24 10:13:00,
2013-05-24 06:14:00,64.6,63.7,29.73,WSW,244,2.0,8.0,97,0.00,,,0.08,meteohub,2013-05-24 10:14:00,
2013-05-24 06:15:00,64.6,63.7,29.73,WSW,254,4.0,8.0,97,0.00,,,0.08,meteohub,2013-05-24 10:15:00,
2013-05-24 06:16:00,64.6,63.7,29.73,West,259,3.0,8.0,97,0.00,,,0.08,meteohub,2013-05-24 10:16:00,
2013-05-24 06:18:00,64.6,63.7,29.73,WSW,248,3.0,8.0,97,0.00,,,0.08,meteohub,2013-05-24 10:18:00,
2013-05-24 06:19:00,64.6,63.7,29.73,WSW,251,1.0,8.0,97,0.00,,,0.08,meteohub,2013-05-24 10:19:00,
2013-05-24 06:21:00,64.6,63.7,29.73,WSW,248,1.0,8.0,97,0.00,,,0.08,meteohub,2013-05-24 10:21:00,
2013-05-24 06:23:00,64.6,63.7,29.73,SW,231,3.0,8.0,97,0.00,,,0.08,meteohub,2013-05-24 10:23:00,
2013-05-24 06:24:00,64.6,63.7,29.73,SW,233,5.0,8.0,97,0.00,,,0.08,meteohub,2013-05-24 10:24:00,
2013-05-24 06:26:00,64.6,63.7,29.73,WSW,251,3.0,7.0,97,0.00,,,0.08,meteohub,2013-05-24 10:26:00,
2013-05-24 06:27:00,64.6,63.7,29.73,West,269,6.0,7.0,97,0.00,,,0.08,meteohub,2013-05-24 10:27:00,
2013-05-24 06:28:00,64.6,63.7,29.73,SW,228,3.0,7.0,97,0.00,,,0.08,meteohub,2013-05-24 10:28:00,
2013-05-24 06:29:00,64.6,63.7,29.73,WSW,246,4.0,7.0,97,0.00,,,0.08,meteohub,2013-05-24 10:29:00,
2013-05-24 06:31:00,64.8,63.9,29.73,West,259,7.0,7.0,97,0.00,,,0.08,meteohub,2013-05-24 10:31:00,
2013-05-24 06:32:00,64.8,63.9,29.73,WSW,246,3.0,7.0,97,0.00,,,0.08,meteohub,2013-05-24 10:32:00,
2013-05-24 06:34:00,64.8,63.9,29.73,SW,234,5.0,7.0,97,0.00,,,0.08,meteohub,2013-05-24 10:34:00,
2013-05-24 06:35:00,64.8,63.9,29.73,WSW,244,2.0,7.0,97,0.00,,,0.08,meteohub,2013-05-24 10:35:00,
2013-05-24 06:36:00,64.8,63.9,29.73,SW,229,2.0,8.0,97,0.00,,,0.08,meteohub,2013-05-24 10:36:00,
2013-05-24 06:37:00,64.8,63.9,29.73,WSW,246,2.0,8.0,97,0.00,,,0.08,meteohub,2013-05-24 10:37:00,
2013-05-24 06:39:00,64.8,63.9,29.73,WSW,248,2.0,8.0,97,0.00,,,0.08,meteohub,2013-05-24 10:39:00,
2013-05-24 06:40:00,64.8,63.9,29.73,SW,228,3.0,8.0,97,0.00,,,0.08,meteohub,2013-05-24 10:40:00,
2013-05-24 06:41:00,64.8,63.9,29.73,WSW,254,2.0,8.0,97,0.00,,,0.08,meteohub,2013-05-24 10:41:00,
2013-05-24 06:42:00,64.8,63.9,29.74,WSW,252,2.0,8.0,97,0.00,,,0.08,meteohub,2013-05-24 10:42:00,
2013-05-24 06:43:00,64.8,63.9,29.74,WSW,243,4.0,8.0,97,0.00,,,0.08,meteohub,2013-05-24 10:43:00,
2013-05-24 06:45:00,64.8,63.9,29.74,SW,234,1.0,8.0,97,0.00,,,0.08,meteohub,2013-05-24 10:45:00,
2013-05-24 06:46:00,64.8,63.9,29.74,WSW,250,7.0,8.0,97,0.00,,,0.08,meteohub,2013-05-24 10:46:00,
2013-05-24 06:47:00,64.9,64.0,29.74,WSW,242,3.0,8.0,97,0.00,,,0.08,meteohub,2013-05-24 10:47:00,
2013-05-24 06:48:00,64.8,63.9,29.73,WSW,242,2.0,8.0,97,0.00,,,0.08,meteohub,2013-05-24 10:48:00,
2013-05-24 06:50:00,64.9,64.0,29.73,West,261,2.0,8.0,97,0.00,,,0.08,meteohub,2013-05-24 10:50:00,
2013-05-24 06:51:00,64.8,63.9,29.73,West,259,2.0,7.0,97,0.00,,,0.08,meteohub,2013-05-24 10:51:00,
2013-05-24 06:52:00,64.8,63.9,29.73,West,259,2.0,7.0,97,0.00,,,0.08,meteohub,2013-05-24 10:52:00,
2013-05-24 06:53:00,64.8,63.9,29.73,West,259,2.0,7.0,97,0.00,,,0.08,meteohub,2013-05-24 10:53:00,
2013-05-24 06:55:00,64.9,64.0,29.73,SW,232,4.0,7.0,97,0.00,,,0.08,meteohub,2013-05-24 10:55:00,
2013-05-24 06:57:00,64.9,64.0,29.73,WSW,240,2.0,7.0,97,0.00,,,0.08,meteohub,2013-05-24 10:57:00,
2013-05-24 06:58:00,64.8,63.9,29.73,WSW,240,0.0,7.0,97,0.00,,,0.08,meteohub,2013-05-24 10:58:00,
2013-05-24 07:00:00,64.8,63.9,29.73,WSW,256,2.0,7.0,97,0.00,,,0.08,meteohub,2013-05-24 11:00:00,
2013-05-24 07:02:00,64.9,64.0,29.74,SW,236,2.0,7.0,97,0.00,,,0.08,meteohub,2013-05-24 11:02:00,
2013-05-24 07:03:00,64.9,64.0,29.74,WSW,243,2.0,7.0,97,0.00,,,0.08,meteohub,2013-05-24 11:03:00,
2013-05-24 07:04:00,64.9,64.0,29.74,SW,231,5.0,7.0,97,0.00,,,0.08,meteohub,2013-05-24 11:04:00,
2013-05-24 07:06:00,64.8,63.9,29.74,SW,236,3.0,6.0,97,0.00,,,0.08,meteohub,2013-05-24 11:06:00,
2013-05-24 07:07:00,64.8,63.9,29.74,SW,232,2.0,6.0,97,0.00,,,0.08,meteohub,2013-05-24 11:07:00,
2013-05-24 07:08:00,64.8,63.9,29.74,SW,233,1.0,6.0,97,0.00,,,0.08,meteohub,2013-05-24 11:08:00,
2013-05-24 07:09:00,64.8,63.9,29.74,WSW,242,2.0,6.0,97,0.00,,,0.08,meteohub,2013-05-24 11:09:00,
2013-05-24 07:11:00,64.8,63.9,29.74,WSW,237,4.0,5.0,97,0.00,,,0.08,meteohub,2013-05-24 11:11:00,
2013-05-24 07:13:00,64.8,63.9,29.74,SSW,206,2.0,5.0,97,0.00,,,0.08,meteohub,2013-05-24 11:13:00,
2013-05-24 07:14:00,64.8,63.9,29.74,SW,222,2.0,5.0,97,0.00,,,0.08,meteohub,2013-05-24 11:14:00,
2013-05-24 07:15:00,64.8,63.9,29.74,WSW,239,5.0,5.0,97,0.00,,,0.08,meteohub,2013-05-24 11:15:00,
2013-05-24 07:16:00,64.8,63.9,29.74,WSW,241,4.0,8.0,97,0.00,,,0.08,meteohub,2013-05-24 11:16:00,
2013-05-24 07:18:00,64.8,63.9,29.74,SW,234,4.0,8.0,97,0.00,,,0.08,meteohub,2013-05-24 11:18:00,
2013-05-24 07:19:00,64.8,63.9,29.74,SW,236,4.0,8.0,97,0.00,,,0.08,meteohub,2013-05-24 11:19:00,
2013-05-24 07:20:00,64.8,63.9,29.74,WSW,258,6.0,8.0,97,0.00,,,0.08,meteohub,2013-05-24 11:20:00,
2013-05-24 07:22:00,64.8,63.9,29.75,WSW,252,4.0,8.0,97,0.00,,,0.08,meteohub,2013-05-24 11:22:00,
2013-05-24 07:23:00,64.8,63.9,29.75,SW,233,6.0,8.0,97,0.00,,,0.08,meteohub,2013-05-24 11:23:00,
2013-05-24 07:24:00,64.8,63.9,29.75,SW,232,7.0,8.0,97,0.00,,,0.08,meteohub,2013-05-24 11:24:00,
2013-05-24 07:25:00,64.8,63.9,29.75,West,270,3.0,9.0,97,0.00,,,0.08,meteohub,2013-05-24 11:25:00,
2013-05-24 07:27:00,64.8,63.9,29.74,WSW,257,4.0,9.0,97,0.00,,,0.08,meteohub,2013-05-24 11:27:00,
2013-05-24 07:28:00,64.8,63.9,29.74,WSW,241,3.0,9.0,97,0.00,,,0.08,meteohub,2013-05-24 11:28:00,
2013-05-24 07:29:00,64.8,63.9,29.74,WSW,258,1.0,9.0,97,0.00,,,0.08,meteohub,2013-05-24 11:29:00,
2013-05-24 07:31:00,64.9,64.0,29.74,WSW,238,3.0,9.0,97,0.00,,,0.08,meteohub,2013-05-24 11:31:00,
2013-05-24 07:34:00,64.9,64.0,29.74,WSW,243,4.0,9.0,97,0.00,,,0.08,meteohub,2013-05-24 11:34:00,
2013-05-24 07:35:00,64.9,64.0,29.74,WSW,240,4.0,9.0,97,0.00,,,0.08,meteohub,2013-05-24 11:35:00,
2013-05-24 07:36:00,64.9,64.0,29.74,WSW,250,3.0,9.0,97,0.00,,,0.08,meteohub,2013-05-24 11:36:00,
2013-05-24 07:39:00,64.9,64.0,29.75,West,268,6.0,9.0,97,0.00,,,0.08,meteohub,2013-05-24 11:39:00,
2013-05-24 07:40:00,64.9,64.0,29.75,WSW,248,4.0,9.0,97,0.00,,,0.08,meteohub,2013-05-24 11:40:00,
2013-05-24 07:41:00,64.9,64.0,29.75,WSW,253,3.0,8.0,97,0.00,,,0.08,meteohub,2013-05-24 11:41:00,
2013-05-24 07:44:00,64.9,64.0,29.74,West,263,2.0,8.0,97,0.00,,,0.08,meteohub,2013-05-24 11:44:00,
2013-05-24 07:45:00,64.9,64.0,29.74,West,262,6.0,8.0,97,0.00,,,0.08,meteohub,2013-05-24 11:45:00,
2013-05-24 07:46:00,64.9,64.0,29.74,West,269,7.0,8.0,97,0.00,,,0.08,meteohub,2013-05-24 11:46:00,
2013-05-24 07:47:00,64.9,64.0,29.74,West,277,4.0,8.0,97,0.00,,,0.08,meteohub,2013-05-24 11:47:00,
2013-05-24 07:49:00,64.9,64.0,29.75,WSW,237,3.0,8.0,97,0.00,,,0.08,meteohub,2013-05-24 11:49:00,
2013-05-24 07:50:00,64.9,64.0,29.75,WSW,254,2.0,8.0,97,0.00,,,0.08,meteohub,2013-05-24 11:50:00,
2013-05-24 07:51:00,64.9,64.0,29.75,West,259,3.0,8.0,97,0.00,,,0.08,meteohub,2013-05-24 11:51:00,
2013-05-24 07:52:00,64.9,64.0,29.75,WSW,246,5.0,8.0,97,0.00,,,0.08,meteohub,2013-05-24 11:52:00,
2013-05-24 07:54:00,64.9,64.0,29.75,West,267,3.0,8.0,97,0.00,,,0.08,meteohub,2013-05-24 11:54:00,
2013-05-24 07:55:00,64.9,64.0,29.75,WSW,251,2.0,8.0,97,0.00,,,0.08,meteohub,2013-05-24 11:55:00,
2013-05-24 07:56:00,64.9,64.0,29.75,WSW,243,2.0,8.0,97,0.00,,,0.08,meteohub,2013-05-24 11:56:00,
2013-05-24 07:57:00,64.9,64.0,29.75,West,265,2.0,8.0,97,0.00,,,0.08,meteohub,2013-05-24 11:57:00,
2013-05-24 07:59:00,64.9,64.0,29.75,WSW,248,2.0,8.0,97,0.00,,,0.08,meteohub,2013-05-24 11:59:00,
2013-05-24 08:01:00,64.9,64.0,29.74,NW,305,4.0,9.0,97,0.00,,,0.08,meteohub,2013-05-24 12:01:00,
2013-05-24 08:02:00,64.9,64.0,29.74,West,275,2.0,9.0,97,0.00,,,0.08,meteohub,2013-05-24 12:02:00,
2013-05-24 08:05:00,64.9,64.0,29.74,WNW,283,4.0,9.0,97,0.00,,,0.08,meteohub,2013-05-24 12:05:00,
2013-05-24 08:06:00,64.9,64.0,29.74,West,279,3.0,9.0,97,0.00,,,0.08,meteohub,2013-05-24 12:06:00,
2013-05-24 08:07:00,64.9,63.9,29.74,WNW,282,8.0,9.0,96,0.00,,,0.08,meteohub,2013-05-24 12:07:00,
2013-05-24 08:08:00,64.9,64.0,29.74,West,266,3.0,9.0,97,0.00,,,0.08,meteohub,2013-05-24 12:08:00,
2013-05-24 08:10:00,64.9,63.9,29.74,WSW,237,2.0,9.0,96,0.00,,,0.08,meteohub,2013-05-24 12:10:00,
2013-05-24 08:11:00,64.9,63.9,29.74,WSW,240,0.0,9.0,96,0.00,,,0.08,meteohub,2013-05-24 12:11:00,
2013-05-24 08:12:00,64.9,63.9,29.74,WNW,284,4.0,9.0,96,0.00,,,0.08,meteohub,2013-05-24 12:12:00,
2013-05-24 08:13:00,64.9,64.0,29.74,WSW,244,4.0,9.0,97,0.00,,,0.08,meteohub,2013-05-24 12:13:00,
2013-05-24 08:16:00,64.9,63.9,29.74,WNW,284,2.0,9.0,96,0.00,,,0.08,meteohub,2013-05-24 12:16:00,
2013-05-24 08:17:00,64.9,64.0,29.74,WSW,240,4.0,9.0,97,0.00,,,0.08,meteohub,2013-05-24 12:17:00,
2013-05-24 08:18:00,65.1,64.2,29.75,WNW,299,4.0,9.0,97,0.00,,,0.08,meteohub,2013-05-24 12:18:00,
2013-05-24 08:19:00,65.1,64.2,29.75,WNW,282,3.0,9.0,97,0.00,,,0.08,meteohub,2013-05-24 12:19:00,
2013-05-24 08:22:00,65.3,64.4,29.75,WSW,244,5.0,8.0,97,0.00,,,0.08,meteohub,2013-05-24 12:22:00,
2013-05-24 08:23:00,65.3,64.4,29.75,WSW,250,5.0,8.0,97,0.00,,,0.08,meteohub,2013-05-24 12:23:00,
2013-05-24 08:25:00,65.5,64.6,29.75,WSW,250,4.0,8.0,97,0.00,,,0.08,meteohub,2013-05-24 12:25:00,
2013-05-24 08:27:00,65.5,64.2,29.75,WSW,246,3.0,9.0,96,0.00,,,0.08,meteohub,2013-05-24 12:27:00,
2013-05-24 08:29:00,65.5,64.2,29.75,WNW,292,5.0,9.0,96,0.00,,,0.08,meteohub,2013-05-24 12:29:00,
2013-05-24 08:30:00,65.5,64.2,29.75,West,279,4.0,9.0,96,0.00,,,0.08,meteohub,2013-05-24 12:30:00,
2013-05-24 08:32:00,65.3,64.0,29.75,WSW,254,3.0,10.0,96,0.00,,,0.08,meteohub,2013-05-24 12:32:00,
2013-05-24 08:34:00,65.5,64.2,29.75,WSW,246,3.0,10.0,96,0.00,,,0.08,meteohub,2013-05-24 12:34:00,
2013-05-24 08:35:00,65.3,64.0,29.75,WNW,283,6.0,10.0,96,0.00,,,0.08,meteohub,2013-05-24 12:35:00,
2013-05-24 08:37:00,65.3,64.0,29.75,West,261,2.0,10.0,96,0.00,,,0.08,meteohub,2013-05-24 12:37:00,
2013-05-24 08:38:00,65.3,64.0,29.75,WSW,242,5.0,10.0,96,0.00,,,0.08,meteohub,2013-05-24 12:38:00,
2013-05-24 08:40:00,65.3,64.0,29.75,West,281,6.0,10.0,96,0.00,,,0.08,meteohub,2013-05-24 12:40:00,
2013-05-24 08:43:00,65.5,64.2,29.75,West,277,2.0,9.0,96,0.00,,,0.08,meteohub,2013-05-24 12:43:00,
2013-05-24 08:44:00,65.5,64.2,29.75,WSW,241,4.0,9.0,96,0.00,,,0.08,meteohub,2013-05-24 12:44:00,
2013-05-24 08:45:00,65.5,64.2,29.75,WSW,254,3.0,9.0,96,0.00,,,0.08,meteohub,2013-05-24 12:45:00,
2013-05-24 08:46:00,65.5,64.2,29.75,West,281,3.0,9.0,96,0.00,,,0.08,meteohub,2013-05-24 12:46:00,
2013-05-24 08:48:00,65.5,64.2,29.75,West,271,1.0,9.0,96,0.00,,,0.08,meteohub,2013-05-24 12:48:00,
2013-05-24 08:49:00,65.5,64.2,29.75,West,273,1.0,9.0,96,0.00,,,0.08,meteohub,2013-05-24 12:49:00,
2013-05-24 08:50:00,65.5,64.2,29.75,SW,236,3.0,9.0,96,0.00,,,0.08,meteohub,2013-05-24 12:50:00,
2013-05-24 08:51:00,65.5,64.2,29.75,WSW,239,1.0,9.0,96,0.00,,,0.08,meteohub,2013-05-24 12:51:00,
2013-05-24 08:53:00,65.5,64.2,29.75,SW,232,5.0,9.0,96,0.00,,,0.08,meteohub,2013-05-24 12:53:00,
2013-05-24 08:55:00,65.5,64.2,29.75,West,277,6.0,9.0,96,0.00,,,0.08,meteohub,2013-05-24 12:55:00,
2013-05-24 08:56:00,65.5,64.2,29.75,West,278,1.0,9.0,96,0.00,,,0.08,meteohub,2013-05-24 12:56:00,
2013-05-24 08:57:00,65.5,64.2,29.75,WSW,238,3.0,9.0,96,0.00,,,0.08,meteohub,2013-05-24 12:57:00,
2013-05-24 08:58:00,65.5,64.2,29.75,West,277,2.0,9.0,96,0.00,,,0.08,meteohub,2013-05-24 12:58:00,
2013-05-24 09:00:00,65.5,64.0,29.75,West,273,6.0,9.0,95,0.00,,,0.08,meteohub,2013-05-24 13:00:00,
2013-05-24 09:01:00,65.3,63.9,29.75,West,265,1.0,9.0,95,0.00,,,0.08,meteohub,2013-05-24 13:01:00,
2013-05-24 09:02:00,65.5,64.2,29.75,SW,225,5.0,9.0,96,0.00,,,0.08,meteohub,2013-05-24 13:02:00,
2013-05-24 09:04:00,65.5,64.2,29.75,West,278,7.0,9.0,96,0.00,,,0.08,meteohub,2013-05-24 13:04:00,
2013-05-24 09:06:00,65.7,64.4,29.75,West,269,3.0,9.0,96,0.00,,,0.08,meteohub,2013-05-24 13:06:00,
2013-05-24 09:07:00,65.7,64.4,29.75,West,271,10.0,10.0,96,0.00,,,0.08,meteohub,2013-05-24 13:07:00,
2013-05-24 09:08:00,65.7,64.4,29.75,West,281,9.0,9.0,96,0.00,,,0.08,meteohub,2013-05-24 13:08:00,
2013-05-24 09:09:00,65.7,64.2,29.75,WNW,287,4.0,9.0,95,0.00,,,0.08,meteohub,2013-05-24 13:09:00,
2013-05-24 09:11:00,65.7,64.4,29.75,West,275,1.0,12.0,96,0.00,,,0.08,meteohub,2013-05-24 13:11:00,
2013-05-24 09:12:00,65.8,64.6,29.75,WNW,286,2.0,12.0,96,0.00,,,0.08,meteohub,2013-05-24 13:12:00,
2013-05-24 09:13:00,65.8,64.6,29.75,West,274,3.0,12.0,96,0.00,,,0.08,meteohub,2013-05-24 13:13:00,
2013-05-24 09:14:00,66.0,64.8,29.75,WSW,252,2.0,12.0,96,0.00,,,0.08,meteohub,2013-05-24 13:14:00,
2013-05-24 09:16:00,66.2,64.8,29.75,WSW,252,2.0,12.0,95,0.00,,,0.08,meteohub,2013-05-24 13:16:00,
2013-05-24 09:17:00,66.2,64.8,29.75,West,277,3.0,12.0,95,0.00,,,0.08,meteohub,2013-05-24 13:17:00,
2013-05-24 09:18:00,66.2,64.8,29.75,West,274,2.0,12.0,95,0.00,,,0.08,meteohub,2013-05-24 13:18:00,
2013-05-24 09:20:00,66.4,64.9,29.75,WSW,252,1.0,12.0,95,0.00,,,0.08,meteohub,2013-05-24 13:20:00,
2013-05-24 09:23:00,66.4,64.9,29.75,WSW,248,4.0,12.0,95,0.00,,,0.08,meteohub,2013-05-24 13:23:00,
2013-05-24 09:24:00,66.4,64.9,29.75,WSW,251,1.0,12.0,95,0.00,,,0.08,meteohub,2013-05-24 13:24:00,
2013-05-24 09:25:00,66.4,64.9,29.75,WNW,286,6.0,12.0,95,0.00,,,0.08,meteohub,2013-05-24 13:25:00,
2013-05-24 09:28:00,66.4,64.9,29.75,WSW,242,3.0,8.0,95,0.00,,,0.08,meteohub,2013-05-24 13:28:00,
2013-05-24 09:29:00,66.4,64.9,29.75,WSW,252,5.0,8.0,95,0.00,,,0.08,meteohub,2013-05-24 13:29:00,
2013-05-24 09:31:00,66.4,64.6,29.75,West,266,6.0,8.0,94,0.00,,,0.08,meteohub,2013-05-24 13:31:00,
2013-05-24 09:33:00,66.6,64.8,29.75,WSW,238,4.0,8.0,94,0.00,,,0.08,meteohub,2013-05-24 13:33:00,
2013-05-24 09:34:00,66.6,64.8,29.75,West,261,2.0,8.0,94,0.00,,,0.08,meteohub,2013-05-24 13:34:00,
2013-05-24 09:36:00,66.6,64.8,29.75,WSW,245,4.0,8.0,94,0.00,,,0.08,meteohub,2013-05-24 13:36:00,
2013-05-24 09:39:00,66.6,64.8,29.75,WNW,288,5.0,8.0,94,0.00,,,0.08,meteohub,2013-05-24 13:39:00,
2013-05-24 09:40:00,66.6,64.8,29.75,WSW,237,6.0,10.0,94,0.00,,,0.08,meteohub,2013-05-24 13:40:00,
2013-05-24 09:41:00,66.6,64.8,29.75,WSW,255,2.0,10.0,94,0.00,,,0.08,meteohub,2013-05-24 13:41:00,
2013-05-24 09:44:00,66.6,64.8,29.75,West,273,3.0,10.0,94,0.00,,,0.08,meteohub,2013-05-24 13:44:00,
2013-05-24 09:45:00,66.6,64.8,29.75,West,274,2.0,10.0,94,0.00,,,0.08,meteohub,2013-05-24 13:45:00,
2013-05-24 09:46:00,66.6,64.8,29.75,WNW,285,3.0,10.0,94,0.00,,,0.08,meteohub,2013-05-24 13:46:00,
2013-05-24 09:47:00,66.6,64.8,29.75,West,263,6.0,10.0,94,0.00,,,0.08,meteohub,2013-05-24 13:47:00,
2013-05-24 09:49:00,66.6,64.8,29.75,WSW,254,1.0,10.0,94,0.00,,,0.08,meteohub,2013-05-24 13:49:00,
2013-05-24 09:50:00,66.6,64.8,29.75,West,279,7.0,10.0,94,0.00,,,0.08,meteohub,2013-05-24 13:50:00,
2013-05-24 09:51:00,66.6,64.8,29.75,WNW,284,2.0,10.0,94,0.00,,,0.08,meteohub,2013-05-24 13:51:00,
2013-05-24 09:52:00,66.7,64.9,29.75,West,273,3.0,10.0,94,0.00,,,0.08,meteohub,2013-05-24 13:52:00,
2013-05-24 09:55:00,66.7,64.6,29.74,WNW,283,3.0,10.0,93,0.00,,,0.08,meteohub,2013-05-24 13:55:00,
2013-05-24 09:56:00,66.7,64.6,29.75,WNW,290,3.0,10.0,93,0.00,,,0.08,meteohub,2013-05-24 13:56:00,
2013-05-24 09:58:00,66.7,64.6,29.75,WNW,285,2.0,10.0,93,0.00,,,0.08,meteohub,2013-05-24 13:58:00,
2013-05-24 10:00:00,66.9,64.8,29.75,WSW,244,2.0,10.0,93,0.00,,,0.08,meteohub,2013-05-24 14:00:00,
2013-05-24 10:01:00,66.9,64.8,29.75,WNW,294,2.0,9.0,93,0.00,,,0.08,meteohub,2013-05-24 14:01:00,
2013-05-24 10:03:00,66.9,64.8,29.75,WNW,288,5.0,9.0,93,0.00,,,0.08,meteohub,2013-05-24 14:03:00,
2013-05-24 10:05:00,66.9,64.6,29.75,WNW,293,4.0,9.0,92,0.00,,,0.08,meteohub,2013-05-24 14:05:00,
2013-05-24 10:06:00,66.9,64.6,29.75,WNW,287,4.0,10.0,92,0.00,,,0.08,meteohub,2013-05-24 14:06:00,
2013-05-24 10:09:00,67.3,64.9,29.75,WSW,242,3.0,10.0,92,0.00,,,0.08,meteohub,2013-05-24 14:09:00,
2013-05-24 10:10:00,67.3,64.9,29.75,West,262,1.0,10.0,92,0.00,,,0.08,meteohub,2013-05-24 14:10:00,
2013-05-24 10:11:00,67.5,65.1,29.75,West,264,1.0,10.0,92,0.00,,,0.08,meteohub,2013-05-24 14:11:00,
2013-05-24 10:12:00,67.5,65.1,29.75,SW,236,3.0,10.0,92,0.00,,,0.08,meteohub,2013-05-24 14:12:00,
2013-05-24 10:14:00,67.6,65.3,29.75,WNW,282,1.0,10.0,92,0.00,,,0.08,meteohub,2013-05-24 14:14:00,
2013-05-24 10:15:00,67.6,65.3,29.75,WNW,299,2.0,10.0,92,0.00,,,0.08,meteohub,2013-05-24 14:15:00,
2013-05-24 10:16:00,67.6,65.3,29.75,WSW,252,4.0,10.0,92,0.00,,,0.08,meteohub,2013-05-24 14:16:00,
2013-05-24 10:17:00,67.6,65.3,29.75,West,279,1.0,10.0,92,0.00,,,0.08,meteohub,2013-05-24 14:17:00,
2013-05-24 10:19:00,67.8,65.1,29.75,WNW,293,2.0,10.0,91,0.00,,,0.08,meteohub,2013-05-24 14:19:00,
2013-05-24 10:21:00,67.8,65.1,29.75,SW,232,3.0,8.0,91,0.00,,,0.08,meteohub,2013-05-24 14:21:00,
2013-05-24 10:22:00,67.8,65.1,29.75,SW,234,4.0,8.0,91,0.00,,,0.08,meteohub,2013-05-24 14:22:00,
2013-05-24 10:25:00,67.8,65.1,29.75,West,260,6.0,8.0,91,0.00,,,0.08,meteohub,2013-05-24 14:25:00,
2013-05-24 10:26:00,67.8,65.1,29.75,West,276,3.0,7.0,91,0.00,,,0.08,meteohub,2013-05-24 14:26:00,
2013-05-24 10:27:00,67.8,65.1,29.75,WNW,294,7.0,7.0,91,0.00,,,0.08,meteohub,2013-05-24 14:27:00,
2013-05-24 10:30:00,67.8,65.1,29.75,SW,219,5.0,7.0,91,0.00,,,0.08,meteohub,2013-05-24 14:30:00,
2013-05-24 10:32:00,68.0,65.3,29.75,WSW,252,1.0,8.0,91,0.00,,,0.08,meteohub,2013-05-24 14:32:00,
2013-05-24 10:33:00,68.0,65.3,29.75,WSW,242,4.0,8.0,91,0.00,,,0.08,meteohub,2013-05-24 14:33:00,
2013-05-24 10:34:00,68.2,65.5,29.75,West,259,2.0,8.0,91,0.00,,,0.08,meteohub,2013-05-24 14:34:00,
2013-05-24 10:35:00,68.2,65.5,29.75,WSW,240,6.0,8.0,91,0.00,,,0.08,meteohub,2013-05-24 14:35:00,
2013-05-24 10:37:00,68.2,65.1,29.75,WNW,299,3.0,8.0,90,0.00,,,0.08,meteohub,2013-05-24 14:37:00,
2013-05-24 10:39:00,68.2,65.1,29.76,West,263,7.0,8.0,90,0.00,,,0.08,meteohub,2013-05-24 14:39:00,
2013-05-24 10:40:00,68.2,65.1,29.76,West,279,6.0,8.0,90,0.00,,,0.08,meteohub,2013-05-24 14:40:00,
2013-05-24 10:42:00,68.2,65.1,29.76,West,268,7.0,8.0,90,0.00,,,0.08,meteohub,2013-05-24 14:42:00,
2013-05-24 10:43:00,68.0,64.9,29.75,SW,226,3.0,8.0,90,0.00,,,0.08,meteohub,2013-05-24 14:43:00,
2013-05-24 10:45:00,68.0,64.9,29.75,West,279,3.0,8.0,90,0.00,,,0.08,meteohub,2013-05-24 14:45:00,
2013-05-24 10:47:00,68.0,64.9,29.75,West,267,4.0,8.0,90,0.00,,,0.08,meteohub,2013-05-24 14:47:00,
2013-05-24 10:48:00,68.2,65.1,29.75,WSW,242,4.0,8.0,90,0.00,,,0.08,meteohub,2013-05-24 14:48:00,
2013-05-24 10:50:00,68.2,65.1,29.75,SW,236,9.0,9.0,90,0.00,,,0.08,meteohub,2013-05-24 14:50:00,
2013-05-24 10:51:00,68.2,64.8,29.75,WSW,239,3.0,11.0,89,0.00,,,0.08,meteohub,2013-05-24 14:51:00,
2013-05-24 10:53:00,68.2,64.8,29.75,WNW,292,3.0,11.0,89,0.00,,,0.08,meteohub,2013-05-24 14:53:00,
2013-05-24 10:54:00,68.2,64.8,29.75,WNW,298,9.0,11.0,89,0.00,,,0.08,meteohub,2013-05-24 14:54:00,
2013-05-24 10:55:00,68.2,64.8,29.75,WNW,298,4.0,11.0,89,0.00,,,0.08,meteohub,2013-05-24 14:55:00,
2013-05-24 10:56:00,68.2,64.8,29.75,West,265,4.0,11.0,89,0.00,,,0.08,meteohub,2013-05-24 14:56:00,
2013-05-24 10:59:00,68.2,64.8,29.75,WNW,288,4.0,11.0,89,0.00,,,0.08,meteohub,2013-05-24 14:59:00,
2013-05-24 11:00:00,68.2,64.8,29.75,WNW,298,1.0,10.0,89,0.00,,,0.08,meteohub,2013-05-24 15:00:00,
2013-05-24 11:01:00,68.2,64.8,29.75,WNW,286,3.0,10.0,89,0.00,,,0.08,meteohub,2013-05-24 15:01:00,
2013-05-24 11:02:00,68.2,64.8,29.75,WNW,298,3.0,10.0,89,0.00,,,0.08,meteohub,2013-05-24 15:02:00,
2013-05-24 11:04:00,68.2,64.8,29.75,WNW,299,5.0,10.0,89,0.00,,,0.08,meteohub,2013-05-24 15:04:00,
2013-05-24 11:06:00,68.2,64.8,29.75,WNW,296,4.0,10.0,89,0.00,,,0.08,meteohub,2013-05-24 15:06:00,
2013-05-24 11:07:00,68.2,64.8,29.75,NW,304,2.0,10.0,89,0.00,,,0.08,meteohub,2013-05-24 15:07:00,
2013-05-24 11:09:00,68.2,64.8,29.75,WNW,288,2.0,10.0,89,0.00,,,0.08,meteohub,2013-05-24 15:09:00,
2013-05-24 11:11:00,68.2,64.8,29.75,WNW,290,2.0,9.0,89,0.00,,,0.08,meteohub,2013-05-24 15:11:00,
2013-05-24 11:12:00,68.2,64.8,29.75,WNW,301,4.0,9.0,89,0.00,,,0.08,meteohub,2013-05-24 15:12:00,
2013-05-24 11:14:00,68.2,64.8,29.75,WNW,284,6.0,9.0,89,0.00,,,0.08,meteohub,2013-05-24 15:14:00,
2013-05-24 11:15:00,68.2,64.8,29.75,WNW,295,7.0,9.0,89,0.00,,,0.08,meteohub,2013-05-24 15:15:00,
2013-05-24 11:16:00,68.2,64.4,29.75,WNW,298,5.0,7.0,88,0.00,,,0.08,meteohub,2013-05-24 15:16:00,
2013-05-24 11:17:00,68.2,64.4,29.75,West,278,3.0,7.0,88,0.00,,,0.08,meteohub,2013-05-24 15:17:00,
2013-05-24 11:18:00,68.2,64.8,29.75,WNW,290,1.0,7.0,89,0.00,,,0.08,meteohub,2013-05-24 15:18:00,
2013-05-24 11:20:00,68.2,64.8,29.75,WNW,292,3.0,7.0,89,0.00,,,0.08,meteohub,2013-05-24 15:20:00,
2013-05-24 11:22:00,68.4,64.6,29.75,WNW,297,7.0,8.0,88,0.00,,,0.08,meteohub,2013-05-24 15:22:00,
2013-05-24 11:23:00,68.4,64.6,29.75,West,265,3.0,8.0,88,0.00,,,0.08,meteohub,2013-05-24 15:23:00,
2013-05-24 11:25:00,68.4,64.6,29.75,WNW,294,2.0,8.0,88,0.00,,,0.08,meteohub,2013-05-24 15:25:00,
2013-05-24 11:27:00,68.4,64.6,29.75,WSW,250,4.0,8.0,88,0.00,,,0.08,meteohub,2013-05-24 15:27:00,
2013-05-24 11:28:00,68.4,64.6,29.75,West,259,1.0,8.0,88,0.00,,,0.08,meteohub,2013-05-24 15:28:00,
2013-05-24 11:30:00,68.4,64.6,29.75,West,281,2.0,8.0,88,0.00,,,0.08,meteohub,2013-05-24 15:30:00,
2013-05-24 11:31:00,68.4,64.6,29.75,WNW,288,4.0,8.0,88,0.00,,,0.08,meteohub,2013-05-24 15:31:00,
2013-05-24 11:32:00,68.4,64.6,29.75,WNW,296,3.0,8.0,88,0.00,,,0.08,meteohub,2013-05-24 15:32:00,
2013-05-24 11:33:00,68.4,64.6,29.75,WNW,294,4.0,8.0,88,0.00,,,0.08,meteohub,2013-05-24 15:33:00,
2013-05-24 11:35:00,68.4,64.6,29.75,SW,236,6.0,8.0,88,0.00,,,0.08,meteohub,2013-05-24 15:35:00,
2013-05-24 11:38:00,68.4,64.6,29.75,WSW,240,3.0,8.0,88,0.00,,,0.08,meteohub,2013-05-24 15:38:00,
2013-05-24 11:39:00,68.4,64.6,29.75,WNW,298,4.0,8.0,88,0.00,,,0.08,meteohub,2013-05-24 15:39:00,
2013-05-24 11:40:00,68.4,64.6,29.75,West,264,7.0,8.0,88,0.00,,,0.08,meteohub,2013-05-24 15:40:00,
2013-05-24 11:43:00,68.4,64.6,29.75,West,281,3.0,8.0,88,0.00,,,0.08,meteohub,2013-05-24 15:43:00,
2013-05-24 11:44:00,68.4,64.6,29.75,WSW,248,3.0,8.0,88,0.00,,,0.08,meteohub,2013-05-24 15:44:00,
2013-05-24 11:46:00,68.2,64.4,29.75,West,270,8.0,9.0,88,0.00,,,0.08,meteohub,2013-05-24 15:46:00,
2013-05-24 11:48:00,68.0,64.4,29.75,WNW,285,4.0,9.0,88,0.00,,,0.08,meteohub,2013-05-24 15:48:00,
2013-05-24 11:49:00,68.0,64.4,29.75,West,262,3.0,9.0,88,0.00,,,0.08,meteohub,2013-05-24 15:49:00,
2013-05-24 11:50:00,67.8,64.2,29.75,West,267,2.0,9.0,88,0.00,,,0.08,meteohub,2013-05-24 15:50:00,
2013-05-24 11:51:00,67.8,64.2,29.75,WNW,295,5.0,14.0,88,0.00,,,0.08,meteohub,2013-05-24 15:51:00,
2013-05-24 11:53:00,67.8,64.2,29.75,WNW,294,2.0,14.0,88,0.00,,,0.08,meteohub,2013-05-24 15:53:00,
2013-05-24 11:54:00,67.8,64.2,29.75,WSW,258,6.0,14.0,88,0.00,,,0.08,meteohub,2013-05-24 15:54:00,
2013-05-24 11:55:00,67.8,64.2,29.75,WNW,284,4.0,14.0,88,0.00,,,0.08,meteohub,2013-05-24 15:55:00,
2013-05-24 11:57:00,67.8,64.2,29.75,West,272,4.0,14.0,88,0.00,,,0.08,meteohub,2013-05-24 15:57:00,
2013-05-24 11:58:00,67.8,64.4,29.75,WNW,287,4.0,14.0,89,0.00,,,0.08,meteohub,2013-05-24 15:58:00,
2013-05-24 11:59:00,67.8,64.4,29.75,WNW,284,3.0,14.0,89,0.00,,,0.08,meteohub,2013-05-24 15:59:00,
2013-05-24 12:00:00,67.8,64.4,29.75,West,281,6.0,14.0,89,0.00,,,0.08,meteohub,2013-05-24 16:00:00,
2013-05-24 12:02:00,67.6,64.2,29.75,WNW,286,8.0,14.0,89,0.00,,,0.08,meteohub,2013-05-24 16:02:00,
2013-05-24 12:04:00,66.7,62.1,29.75,West,279,7.0,14.0,85,0.00,,,0.08,meteohub,2013-05-24 16:04:00,
2013-05-24 12:05:00,66.7,62.1,29.75,WNW,287,9.0,14.0,85,0.00,,,0.08,meteohub,2013-05-24 16:05:00,
2013-05-24 12:07:00,65.1,60.4,29.75,WNW,285,10.0,13.0,85,0.00,,,0.08,meteohub,2013-05-24 16:07:00,
2013-05-24 12:09:00,64.0,60.1,29.76,WNW,284,6.0,13.0,87,0.00,,,0.08,meteohub,2013-05-24 16:09:00,
2013-05-24 12:10:00,64.0,60.1,29.76,WNW,291,5.0,13.0,87,0.00,,,0.08,meteohub,2013-05-24 16:10:00,
2013-05-24 12:12:00,63.5,59.9,29.77,WNW,303,11.0,16.0,88,0.00,,,0.08,meteohub,2013-05-24 16:12:00,
2013-05-24 12:15:00,62.8,59.2,29.77,SW,220,7.0,16.0,88,0.00,,,0.08,meteohub,2013-05-24 16:15:00,
2013-05-24 12:16:00,62.2,58.6,29.77,NE,42,7.0,16.0,88,0.00,,,0.08,meteohub,2013-05-24 16:16:00,
2013-05-24 12:17:00,61.5,57.9,29.78,West,281,6.0,16.0,88,0.00,,,0.08,meteohub,2013-05-24 16:17:00,
2013-05-24 12:20:00,61.0,57.7,29.78,NW,309,7.0,20.0,89,0.00,,,0.08,meteohub,2013-05-24 16:20:00,
2013-05-24 12:21:00,60.8,57.6,29.78,NW,308,5.0,20.0,89,0.00,,,0.08,meteohub,2013-05-24 16:21:00,
2013-05-24 12:23:00,60.3,57.0,29.78,WNW,286,6.0,20.0,89,0.00,,,0.08,meteohub,2013-05-24 16:23:00,
2013-05-24 12:25:00,60.1,57.2,29.78,WNW,288,8.0,20.0,90,0.00,,,0.08,meteohub,2013-05-24 16:25:00,
2013-05-24 12:26:00,60.1,57.2,29.78,NW,321,5.0,20.0,90,0.00,,,0.08,meteohub,2013-05-24 16:26:00,
2013-05-24 12:28:00,59.5,56.7,29.78,NW,320,8.0,20.0,90,0.00,,,0.08,meteohub,2013-05-24 16:28:00,
2013-05-24 12:31:00,59.4,56.5,29.78,West,280,4.0,20.0,90,0.00,,,0.08,meteohub,2013-05-24 16:31:00,
2013-05-24 12:32:00,59.2,56.5,29.78,WNW,298,4.0,20.0,91,0.00,,,0.08,meteohub,2013-05-24 16:32:00,
2013-05-24 12:34:00,59.2,56.5,29.78,SSW,213,17.0,20.0,91,0.00,,,0.08,meteohub,2013-05-24 16:34:00,
2013-05-24 12:36:00,59.2,56.5,29.78,East,84,4.0,18.0,91,0.00,,,0.08,meteohub,2013-05-24 16:36:00,
2013-05-24 12:37:00,59.2,56.5,29.78,SW,234,7.0,18.0,91,0.00,,,0.08,meteohub,2013-05-24 16:37:00,
2013-05-24 12:39:00,59.2,56.5,29.78,West,273,7.0,18.0,91,0.00,,,0.08,meteohub,2013-05-24 16:39:00,
2013-05-24 12:41:00,59.2,56.5,29.78,WNW,302,13.0,18.0,91,0.00,,,0.08,meteohub,2013-05-24 16:41:00,
2013-05-24 12:42:00,59.0,56.1,29.78,WNW,293,13.0,18.0,90,0.00,,,0.08,meteohub,2013-05-24 16:42:00,
2013-05-24 12:44:00,58.8,56.1,29.78,NNE,19,5.0,18.0,91,0.00,,,0.08,meteohub,2013-05-24 16:44:00,
2013-05-24 12:46:00,59.0,56.3,29.78,West,273,9.0,17.0,91,0.00,,,0.08,meteohub,2013-05-24 16:46:00,
2013-05-24 12:47:00,59.0,56.3,29.78,West,281,9.0,17.0,91,0.00,,,0.08,meteohub,2013-05-24 16:47:00,
2013-05-24 12:48:00,59.0,56.1,29.78,West,264,1.0,17.0,90,0.00,,,0.08,meteohub,2013-05-24 16:48:00,
2013-05-24 12:50:00,59.0,56.1,29.78,NW,317,4.0,17.0,90,0.00,,,0.08,meteohub,2013-05-24 16:50:00,
2013-05-24 12:51:00,59.2,56.3,29.78,NNW,327,13.0,16.0,90,0.01,,,0.09,meteohub,2013-05-24 16:51:00,
2013-05-24 12:53:00,59.0,56.1,29.78,NNE,26,9.0,16.0,90,0.01,,,0.09,meteohub,2013-05-24 16:53:00,
2013-05-24 12:55:00,58.6,55.4,29.79,NW,309,8.0,16.0,89,0.01,,,0.09,meteohub,2013-05-24 16:55:00,
2013-05-24 12:57:00,58.6,55.4,29.79,SSW,198,5.0,16.0,89,0.01,,,0.09,meteohub,2013-05-24 16:57:00,
2013-05-24 12:58:00,58.6,55.4,29.79,WSW,251,4.0,16.0,89,0.01,,,0.09,meteohub,2013-05-24 16:58:00,
2013-05-24 12:59:00,58.6,55.4,29.79,WSW,250,3.0,16.0,89,0.01,,,0.09,meteohub,2013-05-24 16:59:00,
2013-05-24 13:00:00,58.6,55.4,29.79,WSW,254,7.0,16.0,89,0.01,,,0.09,meteohub,2013-05-24 17:00:00,
2013-05-24 13:02:00,58.5,54.9,29.79,WNW,286,11.0,16.0,88,0.01,,,0.09,meteohub,2013-05-24 17:02:00,
2013-05-24 13:03:00,58.5,54.9,29.79,West,281,7.0,16.0,88,0.01,,,0.09,meteohub,2013-05-24 17:03:00,
2013-05-24 13:04:00,58.3,54.7,29.79,WNW,292,9.0,16.0,88,0.01,,,0.09,meteohub,2013-05-24 17:04:00,
2013-05-24 13:05:00,58.3,54.7,29.79,WNW,282,8.0,19.0,88,0.01,,,0.09,meteohub,2013-05-24 17:05:00,
2013-05-24 13:07:00,58.1,54.5,29.79,West,277,4.0,19.0,88,0.01,,,0.09,meteohub,2013-05-24 17:07:00,
2013-05-24 13:09:00,58.1,54.9,29.80,NW,313,2.0,19.0,89,0.01,,,0.09,meteohub,2013-05-24 17:09:00,
2013-05-24 13:11:00,57.7,54.1,29.79,NW,304,5.0,19.0,88,0.01,,,0.09,meteohub,2013-05-24 17:11:00,
2013-05-24 13:12:00,57.7,54.1,29.79,WNW,288,8.0,19.0,88,0.01,,,0.09,meteohub,2013-05-24 17:12:00,
2013-05-24 13:14:00,57.6,54.3,29.79,WSW,242,2.0,19.0,89,0.01,,,0.09,meteohub,2013-05-24 17:14:00,
2013-05-24 13:16:00,57.4,54.1,29.79,West,261,9.0,18.0,89,0.01,,,0.09,meteohub,2013-05-24 17:16:00,
2013-05-24 13:17:00,57.0,53.4,29.79,SW,231,5.0,18.0,88,0.01,,,0.09,meteohub,2013-05-24 17:17:00,
2013-05-24 13:18:00,57.0,53.8,29.79,NW,326,5.0,18.0,89,0.01,,,0.09,meteohub,2013-05-24 17:18:00,
2013-05-24 13:19:00,57.0,53.4,29.79,West,275,6.0,18.0,88,0.01,,,0.09,meteohub,2013-05-24 17:19:00,
2013-05-24 13:21:00,56.7,53.1,29.79,West,265,4.0,17.0,88,0.01,,,0.09,meteohub,2013-05-24 17:21:00,
2013-05-24 13:24:00,56.7,53.1,29.80,WNW,286,11.0,17.0,88,0.01,,,0.09,meteohub,2013-05-24 17:24:00,
2013-05-24 13:25:00,56.7,53.1,29.80,WNW,290,15.0,17.0,88,0.01,,,0.09,meteohub,2013-05-24 17:25:00,
2013-05-24 13:26:00,56.7,53.1,29.80,NW,304,9.0,18.0,88,0.01,,,0.09,meteohub,2013-05-24 17:26:00,
2013-05-24 13:29:00,56.7,53.1,29.80,North,0,8.0,18.0,88,0.01,,,0.09,meteohub,2013-05-24 17:29:00,
2013-05-24 13:30:00,56.7,53.1,29.80,SW,229,4.0,18.0,88,0.01,,,0.09,meteohub,2013-05-24 17:30:00,
2013-05-24 13:31:00,56.8,53.6,29.80,WNW,302,9.0,19.0,89,0.01,,,0.09,meteohub,2013-05-24 17:31:00,
2013-05-24 13:34:00,57.0,53.2,29.81,West,269,15.0,19.0,87,0.01,,,0.09,meteohub,2013-05-24 17:34:00,
2013-05-24 13:35:00,57.0,52.9,29.81,SSW,204,6.0,19.0,86,0.01,,,0.09,meteohub,2013-05-24 17:35:00,
2013-05-24 13:37:00,57.0,52.9,29.81,WNW,284,4.0,19.0,86,0.01,,,0.09,meteohub,2013-05-24 17:37:00,
2013-05-24 13:39:00,57.0,52.5,29.81,SW,225,3.0,19.0,85,0.01,,,0.09,meteohub,2013-05-24 17:39:00,
2013-05-24 13:40:00,57.0,52.5,29.81,WNW,300,8.0,19.0,85,0.01,,,0.09,meteohub,2013-05-24 17:40:00,
2013-05-24 13:41:00,57.0,52.5,29.81,NW,321,3.0,19.0,85,0.01,,,0.09,meteohub,2013-05-24 17:41:00,
2013-05-24 13:42:00,57.0,52.5,29.81,West,277,11.0,19.0,85,0.01,,,0.09,meteohub,2013-05-24 17:42:00,
2013-05-24 13:43:00,57.0,52.5,29.81,North,0,3.0,19.0,85,0.01,,,0.09,meteohub,2013-05-24 17:43:00,
2013-05-24 13:45:00,57.4,52.9,29.81,NNE,17,2.0,19.0,85,0.01,,,0.09,meteohub,2013-05-24 17:45:00,
2013-05-24 13:46:00,57.4,52.9,29.81,WNW,299,3.0,18.0,85,0.00,,,0.09,meteohub,2013-05-24 17:46:00,
2013-05-24 13:47:00,57.4,52.9,29.81,North,355,5.0,18.0,85,0.00,,,0.09,meteohub,2013-05-24 17:47:00,
2013-05-24 13:48:00,57.6,52.7,29.81,NW,321,8.0,18.0,84,0.00,,,0.09,meteohub,2013-05-24 17:48:00,
2013-05-24 13:50:00,57.6,52.7,29.81,WNW,282,6.0,18.0,84,0.00,,,0.09,meteohub,2013-05-24 17:50:00,
2013-05-24 13:51:00,57.6,53.1,29.81,WNW,287,7.0,17.0,85,0.00,,,0.09,meteohub,2013-05-24 17:51:00,
2013-05-24 13:52:00,57.4,52.5,29.82,WNW,296,11.0,17.0,84,0.00,,,0.09,meteohub,2013-05-24 17:52:00,
2013-05-24 13:54:00,57.2,52.7,29.81,WNW,302,5.0,17.0,85,0.00,,,0.09,meteohub,2013-05-24 17:54:00,
2013-05-24 13:55:00,57.0,52.5,29.82,WSW,246,7.0,17.0,85,0.00,,,0.09,meteohub,2013-05-24 17:55:00,
2013-05-24 13:56:00,56.8,52.3,29.82,NW,308,15.0,17.0,85,0.00,,,0.09,meteohub,2013-05-24 17:56:00,
2013-05-24 13:57:00,56.7,52.2,29.82,WNW,284,10.0,17.0,85,0.00,,,0.09,meteohub,2013-05-24 17:57:00,
2013-05-24 13:59:00,56.1,51.6,29.82,NW,317,12.0,17.0,85,0.00,,,0.09,meteohub,2013-05-24 17:59:00,
2013-05-24 14:00:00,55.9,51.4,29.82,WNW,286,11.0,17.0,85,0.00,,,0.09,meteohub,2013-05-24 18:00:00,
2013-05-24 14:02:00,55.8,51.3,29.82,NW,307,9.0,17.0,85,0.00,,,0.09,meteohub,2013-05-24 18:02:00,
2013-05-24 14:03:00,55.6,51.1,29.82,WNW,300,11.0,17.0,85,0.00,,,0.09,meteohub,2013-05-24 18:03:00,
2013-05-24 14:05:00,55.2,51.1,29.82,NW,305,15.0,17.0,86,0.00,,,0.09,meteohub,2013-05-24 18:05:00,
2013-05-24 14:06:00,55.2,51.1,29.82,WNW,287,3.0,17.0,86,0.00,,,0.09,meteohub,2013-05-24 18:06:00,
2013-05-24 14:07:00,55.2,51.1,29.82,WNW,290,3.0,17.0,86,0.00,,,0.09,meteohub,2013-05-24 18:07:00,
2013-05-24 14:09:00,55.2,51.1,29.82,WNW,287,5.0,17.0,86,0.00,,,0.09,meteohub,2013-05-24 18:09:00,
2013-05-24 14:11:00,55.0,50.5,29.82,West,275,17.0,17.0,85,0.00,,,0.09,meteohub,2013-05-24 18:11:00,
2013-05-24 14:12:00,54.9,50.4,29.82,WNW,294,8.0,17.0,85,0.00,,,0.09,meteohub,2013-05-24 18:12:00,
2013-05-24 14:13:00,54.9,50.4,29.82,WNW,296,4.0,17.0,85,0.00,,,0.09,meteohub,2013-05-24 18:13:00,
2013-05-24 14:14:00,54.9,50.4,29.82,West,272,11.0,17.0,85,0.00,,,0.09,meteohub,2013-05-24 18:14:00,
2013-05-24 14:16:00,54.7,50.2,29.82,NW,311,8.0,21.0,85,0.00,,,0.09,meteohub,2013-05-24 18:16:00,
2013-05-24 14:17:00,54.7,50.2,29.82,NNW,346,6.0,21.0,85,0.00,,,0.09,meteohub,2013-05-24 18:17:00,
2013-05-24 14:18:00,54.7,50.2,29.82,West,271,11.0,21.0,85,0.00,,,0.09,meteohub,2013-05-24 18:18:00,
2013-05-24 14:19:00,54.7,50.2,29.82,NNW,344,6.0,21.0,85,0.00,,,0.09,meteohub,2013-05-24 18:19:00,
2013-05-24 14:21:00,54.5,49.8,29.82,WSW,244,4.0,24.0,84,0.00,,,0.09,meteohub,2013-05-24 18:21:00,
2013-05-24 14:22:00,54.5,49.8,29.82,SE,142,2.0,24.0,84,0.00,,,0.09,meteohub,2013-05-24 18:22:00,
2013-05-24 14:23:00,54.5,49.8,29.82,WNW,289,8.0,24.0,84,0.00,,,0.09,meteohub,2013-05-24 18:23:00,
2013-05-24 14:24:00,54.5,49.8,29.82,WSW,251,7.0,24.0,84,0.00,,,0.09,meteohub,2013-05-24 18:24:00,
2013-05-24 14:26:00,54.5,49.8,29.82,WSW,250,11.0,24.0,84,0.00,,,0.09,meteohub,2013-05-24 18:26:00,
2013-05-24 14:27:00,54.5,49.8,29.82,NW,325,6.0,24.0,84,0.00,,,0.09,meteohub,2013-05-24 18:27:00,
2013-05-24 14:28:00,54.5,49.8,29.82,NNW,348,6.0,24.0,84,0.00,,,0.09,meteohub,2013-05-24 18:28:00,
2013-05-24 14:29:00,54.5,49.5,29.82,WSW,257,4.0,24.0,83,0.00,,,0.09,meteohub,2013-05-24 18:29:00,
2013-05-24 14:32:00,54.5,49.8,29.82,West,263,6.0,24.0,84,0.00,,,0.09,meteohub,2013-05-24 18:32:00,
2013-05-24 14:34:00,54.5,49.8,29.82,SW,234,2.0,24.0,84,0.00,,,0.09,meteohub,2013-05-24 18:34:00,
2013-05-24 14:35:00,54.5,49.8,29.82,NNW,332,6.0,24.0,84,0.00,,,0.09,meteohub,2013-05-24 18:35:00,
2013-05-24 14:37:00,54.3,49.6,29.82,NNW,336,12.0,18.0,84,0.00,,,0.09,meteohub,2013-05-24 18:37:00,
2013-05-24 14:39:00,54.1,49.1,29.82,NE,51,4.0,18.0,83,0.00,,,0.09,meteohub,2013-05-24 18:39:00,
2013-05-24 14:40:00,54.1,49.1,29.82,SSE,159,4.0,18.0,83,0.00,,,0.09,meteohub,2013-05-24 18:40:00,
2013-05-24 14:43:00,54.1,49.1,29.82,NW,305,5.0,18.0,83,0.00,,,0.09,meteohub,2013-05-24 18:43:00,
2013-05-24 14:44:00,54.1,49.5,29.82,West,278,9.0,18.0,84,0.00,,,0.09,meteohub,2013-05-24 18:44:00,
2013-05-24 14:45:00,54.1,49.5,29.82,West,263,13.0,18.0,84,0.00,,,0.09,meteohub,2013-05-24 18:45:00,
2013-05-24 14:46:00,54.1,49.5,29.82,WSW,257,3.0,18.0,84,0.00,,,0.09,meteohub,2013-05-24 18:46:00,
2013-05-24 14:48:00,54.0,49.6,29.82,WNW,285,4.0,18.0,85,0.00,,,0.09,meteohub,2013-05-24 18:48:00,
2013-05-24 14:50:00,54.0,49.3,29.82,NNW,330,14.0,18.0,84,0.00,,,0.09,meteohub,2013-05-24 18:50:00,
2013-05-24 14:51:00,53.8,49.1,29.83,WNW,301,8.0,20.0,84,0.00,,,0.09,meteohub,2013-05-24 18:51:00,
2013-05-24 14:53:00,53.4,49.1,29.83,WSW,249,8.0,20.0,85,0.00,,,0.09,meteohub,2013-05-24 18:53:00,
2013-05-24 14:55:00,52.9,48.6,29.83,WNW,291,4.0,20.0,85,0.00,,,0.09,meteohub,2013-05-24 18:55:00,
2013-05-24 14:56:00,52.7,48.6,29.83,South,185,2.0,20.0,86,0.00,,,0.09,meteohub,2013-05-24 18:56:00,
2013-05-24 14:59:00,52.5,48.7,29.83,North,5,10.0,20.0,87,0.00,,,0.09,meteohub,2013-05-24 18:59:00,
2013-05-24 15:00:00,52.3,48.6,29.83,WNW,290,13.0,21.0,87,0.00,,,0.09,meteohub,2013-05-24 19:00:00,
2013-05-24 15:01:00,52.3,48.6,29.83,SE,143,2.0,21.0,87,0.00,,,0.09,meteohub,2013-05-24 19:01:00,
2013-05-24 15:02:00,52.3,48.6,29.83,WSW,238,2.0,21.0,87,0.00,,,0.09,meteohub,2013-05-24 19:02:00,
2013-05-24 15:04:00,52.2,48.7,29.83,WNW,290,4.0,21.0,88,0.00,,,0.09,meteohub,2013-05-24 19:04:00,
2013-05-24 15:05:00,52.2,49.1,29.83,SE,144,2.0,21.0,89,0.00,,,0.09,meteohub,2013-05-24 19:05:00,
2013-05-24 15:07:00,52.2,49.1,29.83,North,5,4.0,21.0,89,0.00,,,0.09,meteohub,2013-05-24 19:07:00,
2013-05-24 15:09:00,52.3,49.3,29.83,WNW,284,1.0,21.0,89,0.00,,,0.09,meteohub,2013-05-24 19:09:00,
2013-05-24 15:11:00,52.2,49.3,29.83,North,5,5.0,15.0,90,0.00,,,0.09,meteohub,2013-05-24 19:11:00,
2013-05-24 15:12:00,52.2,49.3,29.83,West,271,12.0,15.0,90,0.00,,,0.09,meteohub,2013-05-24 19:12:00,
2013-05-24 15:14:00,52.2,49.3,29.83,West,265,6.0,15.0,90,0.00,,,0.09,meteohub,2013-05-24 19:14:00,
2013-05-24 15:16:00,52.2,49.3,29.83,SW,232,10.0,16.0,90,0.01,,,0.10,meteohub,2013-05-24 19:16:00,
2013-05-24 15:17:00,52.0,49.1,29.84,NW,307,7.0,16.0,90,0.01,,,0.10,meteohub,2013-05-24 19:17:00,
2013-05-24 15:18:00,52.0,49.1,29.83,WNW,302,7.0,16.0,90,0.01,,,0.10,meteohub,2013-05-24 19:18:00,
2013-05-24 15:19:00,51.8,48.9,29.84,SSW,203,4.0,16.0,90,0.01,,,0.10,meteohub,2013-05-24 19:19:00,
2013-05-24 15:20:00,51.8,48.9,29.84,NW,304,9.0,16.0,90,0.01,,,0.10,meteohub,2013-05-24 19:20:00,
2013-05-24 15:21:00,52.0,49.5,29.84,West,259,7.0,16.0,91,0.01,,,0.10,meteohub,2013-05-24 19:21:00,
2013-05-24 15:23:00,52.2,49.6,29.84,SSE,151,4.0,16.0,91,0.01,,,0.10,meteohub,2013-05-24 19:23:00,
2013-05-24 15:24:00,52.2,49.6,29.84,West,275,7.0,16.0,91,0.01,,,0.10,meteohub,2013-05-24 19:24:00,
2013-05-24 15:25:00,52.2,49.3,29.84,West,266,9.0,16.0,90,0.01,,,0.10,meteohub,2013-05-24 19:25:00,
2013-05-24 15:27:00,52.0,49.1,29.84,WSW,250,8.0,16.0,90,0.01,,,0.10,meteohub,2013-05-24 19:27:00,
2013-05-24 15:28:00,52.0,49.5,29.84,WNW,299,9.0,16.0,91,0.01,,,0.10,meteohub,2013-05-24 19:28:00,
2013-05-24 15:29:00,52.0,49.5,29.84,SSE,161,8.0,16.0,91,0.01,,,0.10,meteohub,2013-05-24 19:29:00,
2013-05-24 15:30:00,52.0,49.1,29.84,West,275,8.0,16.0,90,0.01,,,0.10,meteohub,2013-05-24 19:30:00,
2013-05-24 15:32:00,52.0,49.1,29.84,SW,233,12.0,16.0,90,0.01,,,0.10,meteohub,2013-05-24 19:32:00,
2013-05-24 15:33:00,51.8,48.9,29.83,WSW,255,3.0,16.0,90,0.01,,,0.10,meteohub,2013-05-24 19:33:00,
2013-05-24 15:34:00,51.8,48.9,29.84,NW,311,6.0,16.0,90,0.01,,,0.10,meteohub,2013-05-24 19:34:00,
2013-05-24 15:35:00,52.0,49.1,29.83,WNW,296,7.0,16.0,90,0.01,,,0.10,meteohub,2013-05-24 19:35:00,
2013-05-24 15:36:00,52.0,49.1,29.83,WSW,254,8.0,17.0,90,0.01,,,0.10,meteohub,2013-05-24 19:36:00,
2013-05-24 15:38:00,52.0,49.1,29.83,WSW,258,1.0,17.0,90,0.01,,,0.10,meteohub,2013-05-24 19:38:00,
2013-05-24 15:40:00,52.2,49.3,29.83,West,276,8.0,17.0,90,0.01,,,0.10,meteohub,2013-05-24 19:40:00,
2013-05-24 15:41:00,52.2,49.3,29.83,North,355,5.0,17.0,90,0.01,,,0.10,meteohub,2013-05-24 19:41:00,
2013-05-24 15:43:00,52.2,49.3,29.83,West,263,12.0,17.0,90,0.01,,,0.10,meteohub,2013-05-24 19:43:00,
2013-05-24 15:45:00,52.2,49.3,29.83,NW,317,2.0,17.0,90,0.01,,,0.10,meteohub,2013-05-24 19:45:00,
2013-05-24 15:46:00,52.3,49.5,29.83,WSW,250,8.0,19.0,90,0.01,,,0.10,meteohub,2013-05-24 19:46:00,
2013-05-24 15:47:00,52.3,49.5,29.83,SW,232,4.0,19.0,90,0.01,,,0.10,meteohub,2013-05-24 19:47:00,
2013-05-24 15:49:00,52.3,49.5,29.83,SE,144,2.0,19.0,90,0.01,,,0.10,meteohub,2013-05-24 19:49:00,
2013-05-24 15:50:00,52.2,49.3,29.83,West,280,6.0,19.0,90,0.01,,,0.10,meteohub,2013-05-24 19:50:00,
2013-05-24 15:51:00,52.2,49.3,29.83,West,278,6.0,19.0,90,0.01,,,0.10,meteohub,2013-05-24 19:51:00,
2013-05-24 15:52:00,52.2,49.3,29.83,WSW,250,4.0,19.0,90,0.01,,,0.10,meteohub,2013-05-24 19:52:00,
2013-05-24 15:54:00,52.2,49.3,29.83,SSW,198,3.0,19.0,90,0.01,,,0.10,meteohub,2013-05-24 19:54:00,
2013-05-24 15:55:00,52.2,49.6,29.83,WNW,289,9.0,19.0,91,0.01,,,0.10,meteohub,2013-05-24 19:55:00,
2013-05-24 15:56:00,52.2,49.3,29.83,West,273,10.0,17.0,90,0.01,,,0.10,meteohub,2013-05-24 19:56:00,
2013-05-24 15:58:00,52.0,49.5,29.84,WNW,294,13.0,17.0,91,0.01,,,0.10,meteohub,2013-05-24 19:58:00,
2013-05-24 15:59:00,51.8,49.3,29.84,West,266,2.0,17.0,91,0.01,,,0.10,meteohub,2013-05-24 19:59:00,
2013-05-24 16:00:00,51.6,49.1,29.84,SSW,205,10.0,17.0,91,0.03,,,0.12,meteohub,2013-05-24 20:00:00,
2013-05-24 16:01:00,51.6,49.1,29.84,WNW,290,5.0,15.0,91,0.03,,,0.12,meteohub,2013-05-24 20:01:00,
2013-05-24 16:03:00,51.6,49.1,29.84,NW,326,5.0,15.0,91,0.03,,,0.12,meteohub,2013-05-24 20:03:00,
2013-05-24 16:04:00,51.6,49.5,29.84,WNW,283,10.0,15.0,92,0.03,,,0.12,meteohub,2013-05-24 20:04:00,
2013-05-24 16:05:00,51.6,49.5,29.85,NW,314,6.0,16.0,92,0.03,,,0.12,meteohub,2013-05-24 20:05:00,
2013-05-24 16:06:00,51.4,48.9,29.85,West,269,1.0,16.0,91,0.03,,,0.12,meteohub,2013-05-24 20:06:00,
2013-05-24 16:07:00,51.4,48.9,29.85,NW,309,3.0,16.0,91,0.03,,,0.12,meteohub,2013-05-24 20:07:00,
2013-05-24 16:09:00,51.4,49.3,29.85,NW,317,4.0,16.0,92,0.03,,,0.12,meteohub,2013-05-24 20:09:00,
2013-05-24 16:10:00,51.4,49.3,29.84,WSW,238,5.0,16.0,92,0.03,,,0.12,meteohub,2013-05-24 20:10:00,
2013-05-24 16:11:00,51.4,49.3,29.84,West,268,2.0,16.0,92,0.04,,,0.13,meteohub,2013-05-24 20:11:00,
2013-05-24 16:12:00,51.4,49.3,29.84,West,274,6.0,16.0,92,0.04,,,0.13,meteohub,2013-05-24 20:12:00,
2013-05-24 16:14:00,51.3,49.1,29.84,West,276,9.0,16.0,92,0.04,,,0.13,meteohub,2013-05-24 20:14:00,
2013-05-24 16:15:00,51.3,49.1,29.85,WNW,293,7.0,16.0,92,0.04,,,0.13,meteohub,2013-05-24 20:15:00,
2013-05-24 16:16:00,51.3,49.1,29.85,West,271,9.0,16.0,92,0.03,,,0.13,meteohub,2013-05-24 20:16:00,
2013-05-24 16:17:00,51.1,48.9,29.84,WNW,298,4.0,16.0,92,0.03,,,0.13,meteohub,2013-05-24 20:17:00,
2013-05-24 16:19:00,51.1,48.9,29.85,West,267,7.0,16.0,92,0.03,,,0.13,meteohub,2013-05-24 20:19:00,
2013-05-24 16:20:00,51.1,48.9,29.84,WNW,289,7.0,16.0,92,0.03,,,0.13,meteohub,2013-05-24 20:20:00,
2013-05-24 16:22:00,51.1,48.9,29.85,NW,308,13.0,16.0,92,0.03,,,0.13,meteohub,2013-05-24 20:22:00,
2013-05-24 16:25:00,50.9,48.7,29.85,SE,143,3.0,16.0,92,0.03,,,0.13,meteohub,2013-05-24 20:25:00,
2013-05-24 16:26:00,50.7,48.6,29.85,WNW,302,3.0,16.0,92,0.03,,,0.13,meteohub,2013-05-24 20:26:00,
2013-05-24 16:27:00,50.7,48.6,29.85,WSW,253,5.0,16.0,92,0.03,,,0.13,meteohub,2013-05-24 20:27:00,
2013-05-24 16:31:00,50.7,48.6,29.86,West,267,6.0,16.0,92,0.03,,,0.13,meteohub,2013-05-24 20:31:00,
2013-05-24 16:32:00,50.7,48.6,29.86,West,273,6.0,16.0,92,0.03,,,0.13,meteohub,2013-05-24 20:32:00,
2013-05-24 16:34:00,50.7,48.6,29.86,WSW,246,11.0,16.0,92,0.03,,,0.13,meteohub,2013-05-24 20:34:00,
2013-05-24 16:36:00,50.7,48.6,29.86,WNW,287,7.0,18.0,92,0.03,,,0.13,meteohub,2013-05-24 20:36:00,
2013-05-24 16:37:00,50.7,48.6,29.86,East,86,4.0,18.0,92,0.03,,,0.13,meteohub,2013-05-24 20:37:00,
2013-05-24 16:39:00,50.7,48.6,29.86,West,278,4.0,18.0,92,0.03,,,0.13,meteohub,2013-05-24 20:39:00,
2013-05-24 16:42:00,50.7,48.6,29.86,WNW,292,9.0,18.0,92,0.03,,,0.13,meteohub,2013-05-24 20:42:00,
2013-05-24 16:43:00,50.5,48.0,29.86,SE,130,5.0,18.0,91,0.03,,,0.13,meteohub,2013-05-24 20:43:00,
2013-05-24 16:44:00,50.5,48.4,29.86,WNW,290,5.0,18.0,92,0.03,,,0.13,meteohub,2013-05-24 20:44:00,
2013-05-24 16:47:00,50.5,48.0,29.86,WNW,302,11.0,18.0,91,0.03,,,0.13,meteohub,2013-05-24 20:47:00,
2013-05-24 16:49:00,50.5,48.0,29.86,West,263,3.0,18.0,91,0.03,,,0.13,meteohub,2013-05-24 20:49:00,
2013-05-24 16:52:00,50.5,48.4,29.86,NW,325,1.0,18.0,92,0.03,,,0.13,meteohub,2013-05-24 20:52:00,
2013-05-24 16:53:00,50.5,48.4,29.86,WSW,243,4.0,18.0,92,0.03,,,0.13,meteohub,2013-05-24 20:53:00,
2013-05-24 16:54:00,50.7,48.6,29.86,West,279,8.0,18.0,92,0.03,,,0.13,meteohub,2013-05-24 20:54:00,
2013-05-24 16:58:00,50.5,48.0,29.86,NW,309,4.0,18.0,91,0.01,,,0.13,meteohub,2013-05-24 20:58:00,
2013-05-24 16:59:00,50.5,48.4,29.86,NNW,333,3.0,18.0,92,0.01,,,0.13,meteohub,2013-05-24 20:59:00,
2013-05-24 17:00:00,50.7,48.6,29.86,West,278,8.0,18.0,92,0.01,,,0.13,meteohub,2013-05-24 21:00:00,
2013-05-24 17:03:00,50.7,48.6,29.86,West,265,11.0,18.0,92,0.01,,,0.13,meteohub,2013-05-24 21:03:00,
2013-05-24 17:04:00,50.7,48.6,29.86,West,271,2.0,18.0,92,0.01,,,0.13,meteohub,2013-05-24 21:04:00,
2013-05-24 17:05:00,50.7,48.6,29.87,West,272,3.0,18.0,92,0.01,,,0.13,meteohub,2013-05-24 21:05:00,
2013-05-24 17:08:00,50.7,48.6,29.87,WNW,294,2.0,15.0,92,0.01,,,0.13,meteohub,2013-05-24 21:08:00,
2013-05-24 17:09:00,50.7,48.6,29.87,WNW,294,9.0,15.0,92,0.01,,,0.13,meteohub,2013-05-24 21:09:00,
2013-05-24 17:10:00,50.7,48.6,29.87,West,263,3.0,15.0,92,0.01,,,0.13,meteohub,2013-05-24 21:10:00,
2013-05-24 17:11:00,50.7,48.6,29.87,WNW,297,4.0,15.0,92,0.00,,,0.13,meteohub,2013-05-24 21:11:00,
2013-05-24 17:13:00,50.7,48.6,29.87,WNW,302,12.0,15.0,92,0.00,,,0.13,meteohub,2013-05-24 21:13:00,
2013-05-24 17:14:00,50.7,48.6,29.87,West,275,6.0,15.0,92,0.00,,,0.13,meteohub,2013-05-24 21:14:00,
2013-05-24 17:15:00,50.7,48.6,29.87,ESE,113,2.0,14.0,92,0.01,,,0.14,meteohub,2013-05-24 21:15:00,
2013-05-24 17:16:00,50.7,48.7,29.87,NW,316,3.0,14.0,93,0.01,,,0.14,meteohub,2013-05-24 21:16:00,
2013-05-24 17:18:00,50.7,48.6,29.86,WNW,298,4.0,14.0,92,0.01,,,0.14,meteohub,2013-05-24 21:18:00,
2013-05-24 17:19:00,50.7,48.7,29.87,WNW,291,8.0,14.0,93,0.01,,,0.14,meteohub,2013-05-24 21:19:00,
2013-05-24 17:20:00,50.7,48.7,29.86,SSE,150,3.0,14.0,93,0.01,,,0.14,meteohub,2013-05-24 21:20:00,
2013-05-24 17:21:00,50.7,48.7,29.87,WSW,252,2.0,14.0,93,0.01,,,0.14,meteohub,2013-05-24 21:21:00,
2013-05-24 17:23:00,50.7,48.7,29.87,WNW,282,4.0,14.0,93,0.01,,,0.14,meteohub,2013-05-24 21:23:00,
2013-05-24 17:24:00,50.7,48.7,29.87,NW,325,3.0,14.0,93,0.01,,,0.14,meteohub,2013-05-24 21:24:00,
2013-05-24 17:25:00,50.7,48.7,29.87,WNW,302,4.0,14.0,93,0.01,,,0.14,meteohub,2013-05-24 21:25:00,
2013-05-24 17:26:00,50.7,48.7,29.87,West,267,4.0,14.0,93,0.01,,,0.14,meteohub,2013-05-24 21:26:00,
2013-05-24 17:27:00,50.7,48.7,29.87,WNW,300,1.0,14.0,93,0.01,,,0.14,meteohub,2013-05-24 21:27:00,
2013-05-24 17:29:00,50.9,48.9,29.87,West,260,4.0,14.0,93,0.01,,,0.14,meteohub,2013-05-24 21:29:00,
2013-05-24 17:30:00,50.9,48.9,29.87,NNW,327,5.0,13.0,93,0.01,,,0.14,meteohub,2013-05-24 21:30:00,
2013-05-24 17:32:00,50.9,48.9,29.87,WNW,299,5.0,13.0,93,0.01,,,0.14,meteohub,2013-05-24 21:32:00,
2013-05-24 17:34:00,50.7,48.6,29.87,NW,318,1.0,13.0,92,0.01,,,0.14,meteohub,2013-05-24 21:34:00,
2013-05-24 17:35:00,50.7,48.6,29.87,NNE,22,4.0,13.0,92,0.01,,,0.14,meteohub,2013-05-24 21:35:00,
2013-05-24 17:36:00,50.7,48.7,29.86,West,261,4.0,13.0,93,0.01,,,0.14,meteohub,2013-05-24 21:36:00,
2013-05-24 17:37:00,50.7,48.6,29.86,SW,229,1.0,13.0,92,0.01,,,0.14,meteohub,2013-05-24 21:37:00,
2013-05-24 17:39:00,50.7,48.6,29.87,WNW,287,5.0,13.0,92,0.01,,,0.14,meteohub,2013-05-24 21:39:00,
2013-05-24 17:40:00,50.7,48.6,29.87,West,275,8.0,13.0,92,0.01,,,0.14,meteohub,2013-05-24 21:40:00,
2013-05-24 17:42:00,50.5,48.4,29.87,SE,145,4.0,12.0,92,0.02,,,0.15,meteohub,2013-05-24 21:42:00,
2013-05-24 17:43:00,50.5,48.4,29.87,WNW,295,9.0,12.0,92,0.02,,,0.15,meteohub,2013-05-24 21:43:00,
2013-05-24 17:45:00,50.5,48.4,29.87,WNW,290,4.0,12.0,92,0.02,,,0.15,meteohub,2013-05-24 21:45:00,
2013-05-24 17:47:00,50.7,48.6,29.88,West,279,8.0,16.0,92,0.02,,,0.15,meteohub,2013-05-24 21:47:00,
2013-05-24 17:49:00,50.7,48.6,29.88,West,265,3.0,16.0,92,0.02,,,0.15,meteohub,2013-05-24 21:49:00,
2013-05-24 17:50:00,50.7,48.6,29.88,WNW,299,3.0,16.0,92,0.02,,,0.15,meteohub,2013-05-24 21:50:00,
2013-05-24 17:51:00,50.7,48.6,29.88,WNW,299,4.0,16.0,92,0.02,,,0.15,meteohub,2013-05-24 21:51:00,
2013-05-24 17:52:00,50.7,48.6,29.88,SW,229,3.0,16.0,92,0.02,,,0.15,meteohub,2013-05-24 21:52:00,
2013-05-24 17:53:00,50.7,48.6,29.88,NW,309,5.0,16.0,92,0.02,,,0.15,meteohub,2013-05-24 21:53:00,
2013-05-24 17:55:00,50.7,48.6,29.88,WNW,283,3.0,16.0,92,0.02,,,0.15,meteohub,2013-05-24 21:55:00,
2013-05-24 17:57:00,50.7,48.6,29.88,WSW,251,4.0,15.0,92,0.02,,,0.15,meteohub,2013-05-24 21:57:00,
2013-05-24 17:58:00,50.5,48.4,29.88,WNW,292,4.0,15.0,92,0.02,,,0.15,meteohub,2013-05-24 21:58:00,
2013-05-24 18:00:00,50.5,48.4,29.88,West,271,4.0,15.0,92,0.02,,,0.15,meteohub,2013-05-24 22:00:00,
2013-05-24 18:01:00,50.5,48.4,29.88,WNW,289,3.0,15.0,92,0.02,,,0.15,meteohub,2013-05-24 22:01:00,
2013-05-24 18:03:00,50.5,48.4,29.88,ESE,123,3.0,15.0,92,0.02,,,0.15,meteohub,2013-05-24 22:03:00,
2013-05-24 18:04:00,50.5,48.4,29.88,WNW,287,9.0,15.0,92,0.02,,,0.15,meteohub,2013-05-24 22:04:00,
2013-05-24 18:06:00,50.5,48.0,29.88,WNW,296,7.0,15.0,91,0.02,,,0.15,meteohub,2013-05-24 22:06:00,
2013-05-24 18:08:00,50.4,47.8,29.87,South,191,4.0,15.0,91,0.02,,,0.15,meteohub,2013-05-24 22:08:00,
2013-05-24 18:10:00,50.4,48.2,29.87,WSW,255,9.0,15.0,92,0.02,,,0.15,meteohub,2013-05-24 22:10:00,
2013-05-24 18:11:00,50.4,47.8,29.88,West,264,1.0,14.0,91,0.02,,,0.15,meteohub,2013-05-24 22:11:00,
2013-05-24 18:13:00,50.4,47.8,29.89,WNW,297,7.0,14.0,91,0.02,,,0.15,meteohub,2013-05-24 22:13:00,
2013-05-24 18:15:00,50.4,47.8,29.89,East,99,2.0,14.0,91,0.02,,,0.15,meteohub,2013-05-24 22:15:00,
2013-05-24 18:17:00,50.4,47.8,29.89,NW,310,5.0,15.0,91,0.01,,,0.15,meteohub,2013-05-24 22:17:00,
2013-05-24 18:18:00,50.4,47.8,29.89,West,269,7.0,15.0,91,0.01,,,0.15,meteohub,2013-05-24 22:18:00,
2013-05-24 18:19:00,50.4,47.8,29.89,WNW,297,12.0,15.0,91,0.01,,,0.15,meteohub,2013-05-24 22:19:00,
2013-05-24 18:20:00,50.4,47.8,29.89,WNW,301,12.0,15.0,91,0.01,,,0.15,meteohub,2013-05-24 22:20:00,
2013-05-24 18:22:00,50.2,47.3,29.89,West,275,3.0,15.0,90,0.01,,,0.15,meteohub,2013-05-24 22:22:00,
2013-05-24 18:23:00,50.2,47.3,29.89,WNW,288,2.0,15.0,90,0.01,,,0.15,meteohub,2013-05-24 22:23:00,
2013-05-24 18:24:00,50.2,47.3,29.90,WNW,302,8.0,15.0,90,0.01,,,0.15,meteohub,2013-05-24 22:24:00,
2013-05-24 18:26:00,50.2,47.3,29.90,West,273,4.0,16.0,90,0.01,,,0.15,meteohub,2013-05-24 22:26:00,
2013-05-24 18:27:00,50.2,47.3,29.89,NW,309,7.0,16.0,90,0.01,,,0.15,meteohub,2013-05-24 22:27:00,
2013-05-24 18:28:00,50.2,47.3,29.89,West,264,8.0,16.0,90,0.01,,,0.15,meteohub,2013-05-24 22:28:00,
2013-05-24 18:29:00,50.2,47.3,29.89,West,273,8.0,16.0,90,0.01,,,0.15,meteohub,2013-05-24 22:29:00,
2013-05-24 18:31:00,50.2,47.3,29.89,WNW,302,11.0,16.0,90,0.01,,,0.15,meteohub,2013-05-24 22:31:00,
2013-05-24 18:32:00,50.2,47.3,29.89,West,261,4.0,16.0,90,0.01,,,0.15,meteohub,2013-05-24 22:32:00,
2013-05-24 18:33:00,50.2,47.3,29.89,West,281,1.0,16.0,90,0.01,,,0.15,meteohub,2013-05-24 22:33:00,
2013-05-24 18:34:00,50.4,47.5,29.89,West,277,8.0,16.0,90,0.01,,,0.15,meteohub,2013-05-24 22:34:00,
2013-05-24 18:36:00,50.2,47.1,29.89,WNW,282,4.0,16.0,89,0.01,,,0.15,meteohub,2013-05-24 22:36:00,
2013-05-24 18:37:00,50.2,47.1,29.89,West,262,4.0,16.0,89,0.01,,,0.15,meteohub,2013-05-24 22:37:00,
2013-05-24 18:38:00,50.2,47.1,29.88,WNW,292,3.0,16.0,89,0.01,,,0.15,meteohub,2013-05-24 22:38:00,
2013-05-24 18:40:00,50.4,47.3,29.89,WNW,286,6.0,16.0,89,0.01,,,0.15,meteohub,2013-05-24 22:40:00,
2013-05-24 18:42:00,50.4,47.3,29.89,WNW,288,2.0,14.0,89,0.00,,,0.15,meteohub,2013-05-24 22:42:00,
2013-05-24 18:43:00,50.4,47.3,29.89,WNW,298,8.0,14.0,89,0.00,,,0.15,meteohub,2013-05-24 22:43:00,
2013-05-24 18:44:00,50.4,47.3,29.90,WNW,298,3.0,14.0,89,0.00,,,0.15,meteohub,2013-05-24 22:44:00,
2013-05-24 18:46:00,50.4,47.3,29.90,WNW,282,6.0,14.0,89,0.00,,,0.15,meteohub,2013-05-24 22:46:00,
2013-05-24 18:47:00,50.4,46.9,29.90,WNW,294,4.0,14.0,88,0.00,,,0.15,meteohub,2013-05-24 22:47:00,
2013-05-24 18:48:00,50.2,47.1,29.90,West,276,4.0,14.0,89,0.00,,,0.15,meteohub,2013-05-24 22:48:00,
2013-05-24 18:50:00,50.2,46.8,29.90,WSW,242,2.0,14.0,88,0.00,,,0.15,meteohub,2013-05-24 22:50:00,
2013-05-24 18:51:00,50.2,46.8,29.89,North,351,2.0,14.0,88,0.00,,,0.15,meteohub,2013-05-24 22:51:00,
2013-05-24 18:53:00,50.2,46.8,29.89,West,277,7.0,14.0,88,0.00,,,0.15,meteohub,2013-05-24 22:53:00,
2013-05-24 18:55:00,50.2,46.8,29.89,WSW,258,6.0,14.0,88,0.00,,,0.15,meteohub,2013-05-24 22:55:00,
2013-05-24 18:56:00,50.2,46.8,29.89,WNW,293,5.0,17.0,88,0.00,,,0.15,meteohub,2013-05-24 22:56:00,
2013-05-24 18:58:00,50.2,46.8,29.89,NW,304,8.0,17.0,88,0.00,,,0.15,meteohub,2013-05-24 22:58:00,
2013-05-24 18:59:00,50.2,46.8,29.89,West,263,6.0,17.0,88,0.00,,,0.15,meteohub,2013-05-24 22:59:00,
2013-05-24 19:00:00,50.4,46.9,29.89,SW,223,6.0,17.0,88,0.00,,,0.15,meteohub,2013-05-24 23:00:00,
2013-05-24 19:01:00,50.2,46.8,29.89,WNW,288,12.0,17.0,88,0.00,,,0.15,meteohub,2013-05-24 23:01:00,
2013-05-24 19:03:00,50.2,46.8,29.89,West,279,6.0,17.0,88,0.00,,,0.15,meteohub,2013-05-24 23:03:00,
2013-05-24 19:04:00,50.2,46.8,29.89,WNW,288,3.0,17.0,88,0.00,,,0.15,meteohub,2013-05-24 23:04:00,
2013-05-24 19:05:00,50.2,46.8,29.89,ENE,76,2.0,12.0,88,0.00,,,0.15,meteohub,2013-05-24 23:05:00,
2013-05-24 19:06:00,50.2,46.8,29.89,SSE,148,2.0,12.0,88,0.00,,,0.15,meteohub,2013-05-24 23:06:00,
2013-05-24 19:08:00,50.2,46.8,29.89,West,273,14.0,14.0,88,0.00,,,0.15,meteohub,2013-05-24 23:08:00,
2013-05-24 19:09:00,50.0,46.2,29.89,West,266,4.0,12.0,87,0.00,,,0.15,meteohub,2013-05-24 23:09:00,
2013-05-24 19:11:00,50.0,46.6,29.90,West,273,4.0,17.0,88,0.00,,,0.15,meteohub,2013-05-24 23:11:00,
2013-05-24 19:12:00,50.0,46.6,29.90,West,277,2.0,17.0,88,0.00,,,0.15,meteohub,2013-05-24 23:12:00,
2013-05-24 19:13:00,50.2,46.8,29.91,WNW,300,3.0,17.0,88,0.00,,,0.15,meteohub,2013-05-24 23:13:00,
2013-05-24 19:14:00,50.2,46.8,29.91,WNW,287,11.0,17.0,88,0.00,,,0.15,meteohub,2013-05-24 23:14:00,
2013-05-24 19:16:00,50.2,46.8,29.91,WNW,297,5.0,17.0,88,0.00,,,0.15,meteohub,2013-05-24 23:16:00,
2013-05-24 19:17:00,50.2,46.8,29.91,WNW,290,12.0,17.0,88,0.00,,,0.15,meteohub,2013-05-24 23:17:00,
2013-05-24 19:19:00,50.2,46.8,29.91,NW,312,6.0,17.0,88,0.00,,,0.15,meteohub,2013-05-24 23:19:00,
2013-05-24 19:21:00,50.2,46.4,29.91,NNW,331,9.0,17.0,87,0.00,,,0.15,meteohub,2013-05-24 23:21:00,
2013-05-24 19:22:00,50.2,46.4,29.91,WNW,297,2.0,17.0,87,0.00,,,0.15,meteohub,2013-05-24 23:22:00,
2013-05-24 19:24:00,50.2,46.4,29.91,WSW,242,3.0,17.0,87,0.00,,,0.15,meteohub,2013-05-24 23:24:00,
2013-05-24 19:26:00,50.2,46.2,29.91,WNW,285,6.0,17.0,86,0.00,,,0.15,meteohub,2013-05-24 23:26:00,
2013-05-24 19:28:00,50.2,46.2,29.91,WNW,294,4.0,17.0,86,0.00,,,0.15,meteohub,2013-05-24 23:28:00,
2013-05-24 19:30:00,50.2,46.2,29.91,WNW,288,7.0,17.0,86,0.00,,,0.15,meteohub,2013-05-24 23:30:00,
2013-05-24 19:31:00,50.2,46.2,29.91,WNW,288,3.0,17.0,86,0.00,,,0.15,meteohub,2013-05-24 23:31:00,
2013-05-24 19:32:00,50.2,46.2,29.91,WNW,299,7.0,17.0,86,0.00,,,0.15,meteohub,2013-05-24 23:32:00,
2013-05-24 19:34:00,50.2,46.2,29.91,WSW,250,8.0,17.0,86,0.00,,,0.15,meteohub,2013-05-24 23:34:00,
2013-05-24 19:35:00,50.2,45.9,29.91,West,279,6.0,17.0,85,0.00,,,0.15,meteohub,2013-05-24 23:35:00,
2013-05-24 19:36:00,50.2,45.9,29.91,WNW,291,8.0,17.0,85,0.00,,,0.15,meteohub,2013-05-24 23:36:00,
2013-05-24 19:37:00,50.2,45.9,29.91,WNW,284,8.0,17.0,85,0.00,,,0.15,meteohub,2013-05-24 23:37:00,
2013-05-24 19:39:00,50.2,45.9,29.91,WNW,284,4.0,17.0,85,0.00,,,0.15,meteohub,2013-05-24 23:39:00,
2013-05-24 19:40:00,50.2,45.5,29.91,West,267,4.0,17.0,84,0.00,,,0.15,meteohub,2013-05-24 23:40:00,
2013-05-24 19:41:00,50.2,45.5,29.91,SW,217,2.0,17.0,84,0.00,,,0.15,meteohub,2013-05-24 23:41:00,
2013-05-24 19:42:00,50.2,45.5,29.91,West,277,3.0,17.0,84,0.00,,,0.15,meteohub,2013-05-24 23:42:00,
2013-05-24 19:43:00,50.2,45.9,29.91,North,0,5.0,17.0,85,0.00,,,0.15,meteohub,2013-05-24 23:43:00,
2013-05-24 19:44:00,50.2,45.5,29.91,WNW,284,10.0,17.0,84,0.00,,,0.15,meteohub,2013-05-24 23:44:00,
2013-05-24 19:46:00,50.2,45.5,29.92,WNW,291,7.0,16.0,84,0.00,,,0.15,meteohub,2013-05-24 23:46:00,
2013-05-24 19:47:00,50.2,45.5,29.91,SSW,192,4.0,16.0,84,0.00,,,0.15,meteohub,2013-05-24 23:47:00,
2013-05-24 19:48:00,50.2,45.5,29.91,WNW,292,4.0,16.0,84,0.00,,,0.15,meteohub,2013-05-24 23:48:00,
2013-05-24 19:50:00,50.2,45.5,29.91,WNW,284,8.0,16.0,84,0.00,,,0.15,meteohub,2013-05-24 23:50:00,
2013-05-24 19:51:00,50.4,45.7,29.91,SSW,196,1.0,16.0,84,0.00,,,0.15,meteohub,2013-05-24 23:51:00,
2013-05-24 19:52:00,50.2,45.5,29.91,WNW,301,4.0,16.0,84,0.00,,,0.15,meteohub,2013-05-24 23:52:00,
2013-05-24 19:53:00,50.2,45.5,29.91,NW,305,5.0,16.0,84,0.00,,,0.15,meteohub,2013-05-24 23:53:00,
2013-05-24 19:56:00,50.4,45.3,29.91,NW,319,5.0,13.0,83,0.00,,,0.15,meteohub,2013-05-24 23:56:00,
2013-05-24 19:57:00,50.4,45.3,29.91,WNW,298,5.0,13.0,83,0.00,,,0.15,meteohub,2013-05-24 23:57:00,
2013-05-24 19:58:00,50.4,45.3,29.91,WNW,292,4.0,13.0,83,0.00,,,0.15,meteohub,2013-05-24 23:58:00,
2013-05-24 20:02:00,50.2,45.0,29.92,WNW,299,11.0,15.0,82,0.00,,,0.15,meteohub,2013-05-25 00:02:00,
2013-05-24 20:03:00,50.2,45.0,29.92,WNW,286,6.0,15.0,82,0.00,,,0.15,meteohub,2013-05-25 00:03:00,
2013-05-24 20:07:00,50.2,45.0,29.92,WNW,287,8.0,17.0,82,0.00,,,0.15,meteohub,2013-05-25 00:07:00,
2013-05-24 20:08:00,50.2,45.0,29.91,North,5,5.0,17.0,82,0.00,,,0.15,meteohub,2013-05-25 00:08:00,
2013-05-24 20:09:00,50.2,45.0,29.91,NW,309,10.0,17.0,82,0.00,,,0.15,meteohub,2013-05-25 00:09:00,
2013-05-24 20:12:00,50.4,45.1,29.91,WNW,288,14.0,20.0,82,0.00,,,0.15,meteohub,2013-05-25 00:12:00,
2013-05-24 20:13:00,50.4,45.1,29.91,NNW,348,8.0,20.0,82,0.00,,,0.15,meteohub,2013-05-25 00:13:00,
2013-05-24 20:14:00,50.2,45.0,29.91,SSE,162,6.0,20.0,82,0.00,,,0.15,meteohub,2013-05-25 00:14:00,
2013-05-24 20:17:00,50.2,45.0,29.91,West,278,4.0,20.0,82,0.00,,,0.15,meteohub,2013-05-25 00:17:00,
2013-05-24 20:18:00,50.2,45.0,29.91,West,277,4.0,20.0,82,0.00,,,0.15,meteohub,2013-05-25 00:18:00,
2013-05-24 20:19:00,50.2,44.6,29.92,WSW,244,8.0,20.0,81,0.00,,,0.15,meteohub,2013-05-25 00:19:00,
2013-05-24 20:20:00,50.2,44.6,29.92,NW,309,4.0,20.0,81,0.00,,,0.15,meteohub,2013-05-25 00:20:00,
2013-05-24 20:22:00,50.2,45.0,29.92,SW,232,0.0,18.0,82,0.00,,,0.15,meteohub,2013-05-25 00:22:00,
2013-05-24 20:23:00,50.2,45.0,29.92,NW,309,10.0,18.0,82,0.00,,,0.15,meteohub,2013-05-25 00:23:00,
2013-05-24 20:24:00,50.2,45.0,29.92,WNW,290,4.0,18.0,82,0.00,,,0.15,meteohub,2013-05-25 00:24:00,
2013-05-24 20:25:00,50.2,45.0,29.92,West,277,8.0,18.0,82,0.00,,,0.15,meteohub,2013-05-25 00:25:00,
2013-05-24 20:28:00,50.2,45.0,29.93,West,276,4.0,18.0,82,0.00,,,0.15,meteohub,2013-05-25 00:28:00,
2013-05-24 20:29:00,50.2,45.0,29.93,NW,313,3.0,18.0,82,0.00,,,0.15,meteohub,2013-05-25 00:29:00,
2013-05-24 20:30:00,50.2,45.0,29.93,WNW,288,7.0,18.0,82,0.00,,,0.15,meteohub,2013-05-25 00:30:00,
2013-05-24 20:33:00,50.2,44.6,29.93,NW,319,6.0,18.0,81,0.00,,,0.15,meteohub,2013-05-25 00:33:00,
2013-05-24 20:34:00,50.2,45.0,29.93,NE,50,4.0,18.0,82,0.00,,,0.15,meteohub,2013-05-25 00:34:00,
2013-05-24 20:36:00,50.2,44.6,29.93,WNW,296,5.0,17.0,81,0.00,,,0.15,meteohub,2013-05-25 00:36:00,
2013-05-24 20:39:00,50.2,44.6,29.93,NW,306,4.0,17.0,81,0.00,,,0.15,meteohub,2013-05-25 00:39:00,
2013-05-24 20:40:00,50.2,44.6,29.94,WNW,293,7.0,17.0,81,0.00,,,0.15,meteohub,2013-05-25 00:40:00,
2013-05-24 20:42:00,50.2,44.6,29.94,NNW,327,8.0,17.0,81,0.00,,,0.15,meteohub,2013-05-25 00:42:00,
2013-05-24 20:44:00,50.2,44.6,29.94,WNW,291,3.0,17.0,81,0.00,,,0.15,meteohub,2013-05-25 00:44:00,
2013-05-24 20:45:00,50.2,44.6,29.94,NW,319,6.0,17.0,81,0.00,,,0.15,meteohub,2013-05-25 00:45:00,
2013-05-24 20:47:00,50.2,44.2,29.94,WNW,292,4.0,17.0,80,0.00,,,0.15,meteohub,2013-05-25 00:47:00,
2013-05-24 20:49:00,50.2,44.2,29.94,WNW,286,11.0,17.0,80,0.00,,,0.15,meteohub,2013-05-25 00:49:00,
2013-05-24 20:50:00,50.4,44.4,29.94,WSW,238,2.0,17.0,80,0.00,,,0.15,meteohub,2013-05-25 00:50:00,
2013-05-24 20:51:00,50.4,44.4,29.94,WNW,288,2.0,17.0,80,0.00,,,0.15,meteohub,2013-05-25 00:51:00,
2013-05-24 20:52:00,50.4,44.8,29.94,WSW,251,4.0,17.0,81,0.00,,,0.15,meteohub,2013-05-25 00:52:00,
2013-05-24 20:54:00,50.4,44.8,29.94,WNW,285,8.0,17.0,81,0.00,,,0.15,meteohub,2013-05-25 00:54:00,
2013-05-24 20:55:00,50.4,44.4,29.94,West,267,3.0,17.0,80,0.00,,,0.15,meteohub,2013-05-25 00:55:00,
2013-05-24 20:56:00,50.4,44.4,29.94,WSW,239,2.0,17.0,80,0.00,,,0.15,meteohub,2013-05-25 00:56:00,
2013-05-24 20:58:00,50.4,44.4,29.93,West,266,6.0,17.0,80,0.00,,,0.15,meteohub,2013-05-25 00:58:00,
2013-05-24 20:59:00,50.4,44.4,29.93,WSW,244,1.0,17.0,80,0.00,,,0.15,meteohub,2013-05-25 00:59:00,
2013-05-24 21:01:00,50.4,44.4,29.93,SSW,211,1.0,16.0,80,0.00,,,0.15,meteohub,2013-05-25 01:01:00,
2013-05-24 21:02:00,50.4,44.4,29.93,West,279,6.0,16.0,80,0.00,,,0.15,meteohub,2013-05-25 01:02:00,
2013-05-24 21:03:00,50.4,44.4,29.93,East,80,3.0,16.0,80,0.00,,,0.15,meteohub,2013-05-25 01:03:00,
2013-05-24 21:05:00,50.4,44.4,29.93,WNW,283,8.0,16.0,80,0.00,,,0.15,meteohub,2013-05-25 01:05:00,
2013-05-24 21:06:00,50.2,44.2,29.93,NW,309,5.0,16.0,80,0.00,,,0.15,meteohub,2013-05-25 01:06:00,
2013-05-24 21:07:00,50.2,44.2,29.93,West,267,12.0,16.0,80,0.00,,,0.15,meteohub,2013-05-25 01:07:00,
2013-05-24 21:09:00,50.2,44.2,29.94,WNW,297,4.0,16.0,80,0.00,,,0.15,meteohub,2013-05-25 01:09:00,
2013-05-24 21:10:00,50.2,44.2,29.94,NW,308,7.0,16.0,80,0.00,,,0.15,meteohub,2013-05-25 01:10:00,
2013-05-24 21:11:00,50.2,44.2,29.94,WNW,295,7.0,17.0,80,0.00,,,0.15,meteohub,2013-05-25 01:11:00,
2013-05-24 21:12:00,50.2,43.9,29.94,West,259,6.0,17.0,79,0.00,,,0.15,meteohub,2013-05-25 01:12:00,
2013-05-24 21:14:00,50.2,44.2,29.94,NW,313,9.0,17.0,80,0.00,,,0.15,meteohub,2013-05-25 01:14:00,
2013-05-24 21:15:00,50.2,43.9,29.94,NW,304,10.0,17.0,79,0.00,,,0.15,meteohub,2013-05-25 01:15:00,
2013-05-24 21:16:00,50.0,43.7,29.94,NE,42,4.0,17.0,79,0.00,,,0.15,meteohub,2013-05-25 01:16:00,
2013-05-24 21:17:00,49.8,43.9,29.94,ESE,113,4.0,17.0,80,0.00,,,0.15,meteohub,2013-05-25 01:17:00,
2013-05-24 21:18:00,49.8,43.9,29.94,SW,234,2.0,17.0,80,0.00,,,0.15,meteohub,2013-05-25 01:18:00,
2013-05-24 21:19:00,49.8,43.9,29.94,NW,313,4.0,17.0,80,0.00,,,0.15,meteohub,2013-05-25 01:19:00,
2013-05-24 21:20:00,49.6,44.1,29.94,NNW,338,5.0,17.0,81,0.00,,,0.15,meteohub,2013-05-25 01:20:00,
2013-05-24 21:21:00,49.6,44.1,29.94,NNE,26,9.0,17.0,81,0.00,,,0.15,meteohub,2013-05-25 01:21:00,
2013-05-24 21:23:00,49.6,44.1,29.94,NW,317,5.0,17.0,81,0.00,,,0.15,meteohub,2013-05-25 01:23:00,
2013-05-24 21:25:00,49.5,44.2,29.94,NNE,12,14.0,17.0,82,0.00,,,0.15,meteohub,2013-05-25 01:25:00,
2013-05-24 21:26:00,49.3,44.1,29.94,WSW,249,7.0,17.0,82,0.00,,,0.15,meteohub,2013-05-25 01:26:00,
2013-05-24 21:28:00,49.3,44.4,29.94,NNW,341,6.0,17.0,83,0.00,,,0.15,meteohub,2013-05-25 01:28:00,
2013-05-24 21:30:00,49.1,44.2,29.94,WNW,296,2.0,17.0,83,0.00,,,0.15,meteohub,2013-05-25 01:30:00,
2013-05-24 21:32:00,48.9,44.1,29.94,WNW,300,4.0,17.0,83,0.00,,,0.15,meteohub,2013-05-25 01:32:00,
2013-05-24 21:34:00,48.9,44.1,29.94,WNW,284,4.0,17.0,83,0.00,,,0.15,meteohub,2013-05-25 01:34:00,
2013-05-24 21:36:00,49.1,44.4,29.94,WNW,298,11.0,17.0,84,0.00,,,0.15,meteohub,2013-05-25 01:36:00,
2013-05-24 21:38:00,48.9,44.2,29.94,WNW,284,4.0,17.0,84,0.00,,,0.15,meteohub,2013-05-25 01:38:00,
2013-05-24 21:39:00,48.9,44.2,29.94,East,92,4.0,17.0,84,0.00,,,0.15,meteohub,2013-05-25 01:39:00,
2013-05-24 21:40:00,48.9,44.2,29.94,WSW,237,2.0,17.0,84,0.00,,,0.15,meteohub,2013-05-25 01:40:00,
2013-05-24 21:41:00,48.9,44.2,29.94,NW,314,4.0,16.0,84,0.00,,,0.15,meteohub,2013-05-25 01:41:00,
2013-05-24 21:43:00,48.7,44.1,29.94,WSW,239,6.0,16.0,84,0.00,,,0.15,meteohub,2013-05-25 01:43:00,
2013-05-24 21:44:00,48.7,44.1,29.95,WSW,248,3.0,16.0,84,0.00,,,0.15,meteohub,2013-05-25 01:44:00,
2013-05-24 21:45:00,48.6,43.9,29.95,West,275,8.0,16.0,84,0.00,,,0.15,meteohub,2013-05-25 01:45:00,
2013-05-24 21:46:00,48.6,43.9,29.95,WSW,238,5.0,19.0,84,0.00,,,0.15,meteohub,2013-05-25 01:46:00,
2013-05-24 21:47:00,48.6,43.9,29.95,NW,305,15.0,19.0,84,0.00,,,0.15,meteohub,2013-05-25 01:47:00,
2013-05-24 21:48:00,48.6,44.2,29.96,WNW,289,8.0,19.0,85,0.00,,,0.15,meteohub,2013-05-25 01:48:00,
2013-05-24 21:50:00,48.6,44.2,29.96,South,177,2.0,19.0,85,0.00,,,0.15,meteohub,2013-05-25 01:50:00,
2013-05-24 21:52:00,48.4,44.1,29.96,West,276,9.0,19.0,85,0.00,,,0.15,meteohub,2013-05-25 01:52:00,
2013-05-24 21:53:00,48.2,44.2,29.96,West,277,7.0,19.0,86,0.00,,,0.15,meteohub,2013-05-25 01:53:00,
2013-05-24 21:55:00,48.0,44.1,29.96,West,259,10.0,19.0,86,0.00,,,0.15,meteohub,2013-05-25 01:55:00,
2013-05-24 21:57:00,47.8,43.9,29.96,WSW,254,10.0,19.0,86,0.00,,,0.15,meteohub,2013-05-25 01:57:00,
2013-05-24 21:58:00,47.8,44.2,29.96,East,82,7.0,19.0,87,0.00,,,0.15,meteohub,2013-05-25 01:58:00,
2013-05-24 22:00:00,47.7,44.1,29.96,WNW,284,8.0,19.0,87,0.00,,,0.15,meteohub,2013-05-25 02:00:00,
2013-05-24 22:01:00,47.5,44.1,29.96,WNW,291,12.0,20.0,88,0.00,,,0.15,meteohub,2013-05-25 02:01:00,
2013-05-24 22:02:00,47.5,44.1,29.96,WNW,292,11.0,20.0,88,0.00,,,0.15,meteohub,2013-05-25 02:02:00,
2013-05-24 22:05:00,47.5,44.1,29.96,West,269,6.0,20.0,88,0.00,,,0.15,meteohub,2013-05-25 02:05:00,
2013-05-24 22:06:00,47.5,44.1,29.97,WNW,302,11.0,20.0,88,0.00,,,0.15,meteohub,2013-05-25 02:06:00,
2013-05-24 22:07:00,47.3,43.9,29.96,WSW,242,5.0,20.0,88,0.00,,,0.15,meteohub,2013-05-25 02:07:00,
2013-05-24 22:11:00,47.3,43.9,29.97,West,271,4.0,20.0,88,0.00,,,0.15,meteohub,2013-05-25 02:11:00,
2013-05-24 22:12:00,47.1,43.7,29.97,WNW,296,3.0,20.0,88,0.00,,,0.15,meteohub,2013-05-25 02:12:00,
2013-05-24 22:13:00,47.1,44.1,29.97,West,259,7.0,20.0,89,0.00,,,0.15,meteohub,2013-05-25 02:13:00,
2013-05-24 22:16:00,47.1,44.1,29.98,West,267,6.0,17.0,89,0.00,,,0.15,meteohub,2013-05-25 02:16:00,
2013-05-24 22:17:00,47.1,44.1,29.97,NW,311,3.0,17.0,89,0.00,,,0.15,meteohub,2013-05-25 02:17:00,
2013-05-24 22:18:00,47.1,44.1,29.97,WNW,286,6.0,17.0,89,0.00,,,0.15,meteohub,2013-05-25 02:18:00,
2013-05-24 22:21:00,47.3,44.2,29.98,NW,323,1.0,15.0,89,0.00,,,0.15,meteohub,2013-05-25 02:21:00,
2013-05-24 22:22:00,47.3,44.2,29.98,WNW,292,5.0,15.0,89,0.00,,,0.15,meteohub,2013-05-25 02:22:00,
2013-05-24 22:23:00,47.3,44.2,29.98,West,275,6.0,15.0,89,0.00,,,0.15,meteohub,2013-05-25 02:23:00,
2013-05-24 22:24:00,47.3,44.2,29.97,NW,307,10.0,15.0,89,0.00,,,0.15,meteohub,2013-05-25 02:24:00,
2013-05-24 22:27:00,47.1,44.1,29.97,WNW,298,9.0,15.0,89,0.00,,,0.15,meteohub,2013-05-25 02:27:00,
2013-05-24 22:28:00,47.1,44.1,29.97,West,277,8.0,15.0,89,0.00,,,0.15,meteohub,2013-05-25 02:28:00,
2013-05-24 22:29:00,47.1,44.1,29.97,ESE,120,4.0,15.0,89,0.00,,,0.15,meteohub,2013-05-25 02:29:00,
2013-05-24 22:32:00,47.1,44.4,29.97,WSW,251,10.0,15.0,90,0.00,,,0.15,meteohub,2013-05-25 02:32:00,
2013-05-24 22:33:00,46.9,43.9,29.97,NW,308,7.0,15.0,89,0.00,,,0.15,meteohub,2013-05-25 02:33:00,
2013-05-24 22:34:00,46.9,43.9,29.97,NW,304,8.0,15.0,89,0.00,,,0.15,meteohub,2013-05-25 02:34:00,
2013-05-24 22:35:00,46.9,44.2,29.97,WNW,286,3.0,15.0,90,0.00,,,0.15,meteohub,2013-05-25 02:35:00,
2013-05-24 22:37:00,46.9,44.2,29.97,WNW,287,3.0,15.0,90,0.00,,,0.15,meteohub,2013-05-25 02:37:00,
2013-05-24 22:38:00,46.9,44.2,29.97,West,281,9.0,15.0,90,0.00,,,0.15,meteohub,2013-05-25 02:38:00,
2013-05-24 22:39:00,46.9,44.2,29.97,WNW,298,8.0,15.0,90,0.00,,,0.15,meteohub,2013-05-25 02:39:00,
2013-05-24 22:41:00,46.9,44.2,29.97,SW,219,4.0,16.0,90,0.00,,,0.15,meteohub,2013-05-25 02:41:00,
2013-05-24 22:42:00,46.9,44.2,29.97,West,277,15.0,16.0,90,0.00,,,0.15,meteohub,2013-05-25 02:42:00,
2013-05-24 22:45:00,46.8,44.1,29.97,WNW,292,8.0,16.0,90,0.00,,,0.15,meteohub,2013-05-25 02:45:00,
2013-05-24 22:46:00,46.8,44.1,29.97,NNE,28,6.0,19.0,90,0.00,,,0.15,meteohub,2013-05-25 02:46:00,
2013-05-24 22:47:00,46.8,44.1,29.97,WNW,292,10.0,19.0,90,0.00,,,0.15,meteohub,2013-05-25 02:47:00,
2013-05-24 22:48:00,46.8,44.1,29.97,NW,320,8.0,19.0,90,0.00,,,0.15,meteohub,2013-05-25 02:48:00,
2013-05-24 22:50:00,46.8,44.1,29.97,West,276,4.0,19.0,90,0.00,,,0.15,meteohub,2013-05-25 02:50:00,
2013-05-24 22:51:00,46.8,44.1,29.97,WNW,294,4.0,19.0,90,0.00,,,0.15,meteohub,2013-05-25 02:51:00,
2013-05-24 22:52:00,46.8,44.1,29.97,West,271,3.0,19.0,90,0.00,,,0.15,meteohub,2013-05-25 02:52:00,
2013-05-24 22:53:00,46.8,44.1,29.97,West,259,3.0,19.0,90,0.00,,,0.15,meteohub,2013-05-25 02:53:00,
2013-05-24 22:56:00,46.8,44.1,29.97,WNW,286,12.0,19.0,90,0.00,,,0.15,meteohub,2013-05-25 02:56:00,
2013-05-24 22:57:00,46.6,43.9,29.97,WNW,292,10.0,19.0,90,0.00,,,0.15,meteohub,2013-05-25 02:57:00,
2013-05-24 22:58:00,46.6,43.5,29.97,NW,311,5.0,19.0,89,0.00,,,0.15,meteohub,2013-05-25 02:58:00,
2013-05-24 23:01:00,46.6,43.9,29.97,WNW,298,14.0,16.0,90,0.00,,,0.15,meteohub,2013-05-25 03:01:00,
2013-05-24 23:02:00,46.6,43.5,29.97,WNW,300,10.0,16.0,89,0.00,,,0.15,meteohub,2013-05-25 03:02:00,
2013-05-24 23:03:00,46.6,43.5,29.97,West,270,6.0,16.0,89,0.00,,,0.15,meteohub,2013-05-25 03:03:00,
2013-05-24 23:06:00,46.6,43.5,29.97,West,263,4.0,16.0,89,0.00,,,0.15,meteohub,2013-05-25 03:06:00,
2013-05-24 23:07:00,46.6,43.9,29.97,WSW,244,4.0,16.0,90,0.00,,,0.15,meteohub,2013-05-25 03:07:00,
2013-05-24 23:08:00,46.6,43.9,29.97,WNW,298,5.0,16.0,90,0.00,,,0.15,meteohub,2013-05-25 03:08:00,
2013-05-24 23:10:00,46.6,43.5,29.97,NW,304,7.0,16.0,89,0.00,,,0.15,meteohub,2013-05-25 03:10:00,
2013-05-24 23:11:00,46.6,43.5,29.97,WSW,248,4.0,16.0,89,0.00,,,0.15,meteohub,2013-05-25 03:11:00,
2013-05-24 23:12:00,46.4,43.3,29.97,WNW,284,11.0,16.0,89,0.00,,,0.15,meteohub,2013-05-25 03:12:00,
2013-05-24 23:13:00,46.4,43.3,29.97,WNW,293,7.0,16.0,89,0.00,,,0.15,meteohub,2013-05-25 03:13:00,
2013-05-24 23:15:00,46.4,43.3,29.97,WNW,286,7.0,16.0,89,0.00,,,0.15,meteohub,2013-05-25 03:15:00,
2013-05-24 23:17:00,46.6,43.9,29.97,WSW,258,7.0,16.0,90,0.00,,,0.15,meteohub,2013-05-25 03:17:00,
2013-05-24 23:18:00,46.6,43.9,29.97,NW,305,4.0,16.0,90,0.00,,,0.15,meteohub,2013-05-25 03:18:00,
2013-05-24 23:19:00,46.6,43.9,29.97,WNW,301,9.0,16.0,90,0.00,,,0.15,meteohub,2013-05-25 03:19:00,
2013-05-24 23:20:00,46.4,43.3,29.97,WNW,300,9.0,16.0,89,0.00,,,0.15,meteohub,2013-05-25 03:20:00,
2013-05-24 23:22:00,46.4,43.7,29.97,WNW,285,14.0,15.0,90,0.00,,,0.15,meteohub,2013-05-25 03:22:00,
2013-05-24 23:23:00,46.2,43.5,29.97,WNW,284,7.0,15.0,90,0.00,,,0.15,meteohub,2013-05-25 03:23:00,
2013-05-24 23:24:00,46.2,43.5,29.97,WNW,282,3.0,15.0,90,0.00,,,0.15,meteohub,2013-05-25 03:24:00,
2013-05-24 23:25:00,46.2,43.5,29.97,WNW,303,9.0,15.0,90,0.00,,,0.15,meteohub,2013-05-25 03:25:00,
2013-05-24 23:27:00,46.2,43.5,29.97,WNW,292,3.0,14.0,90,0.00,,,0.15,meteohub,2013-05-25 03:27:00,
2013-05-24 23:28:00,46.2,43.5,29.97,WNW,286,4.0,14.0,90,0.00,,,0.15,meteohub,2013-05-25 03:28:00,
2013-05-24 23:29:00,46.2,43.5,29.97,West,259,4.0,14.0,90,0.00,,,0.15,meteohub,2013-05-25 03:29:00,
2013-05-24 23:30:00,46.2,43.5,29.97,WSW,237,4.0,14.0,90,0.00,,,0.15,meteohub,2013-05-25 03:30:00,
2013-05-24 23:33:00,46.2,43.5,29.97,NW,310,7.0,14.0,90,0.00,,,0.15,meteohub,2013-05-25 03:33:00,
2013-05-24 23:35:00,46.2,43.5,29.97,WNW,298,5.0,14.0,90,0.00,,,0.15,meteohub,2013-05-25 03:35:00,
2013-05-24 23:39:00,46.0,43.3,29.97,WNW,289,8.0,14.0,90,0.00,,,0.15,meteohub,2013-05-25 03:39:00,
2013-05-24 23:40:00,46.0,43.5,29.97,WNW,300,3.0,14.0,91,0.00,,,0.16,meteohub,2013-05-25 03:40:00,
2013-05-24 23:42:00,46.0,43.5,29.97,WNW,294,7.0,13.0,91,0.01,,,0.16,meteohub,2013-05-25 03:42:00,
2013-05-24 23:44:00,46.0,43.5,29.97,NW,304,12.0,13.0,91,0.01,,,0.16,meteohub,2013-05-25 03:44:00,
2013-05-24 23:45:00,46.0,43.5,29.97,NW,320,5.0,13.0,91,0.01,,,0.16,meteohub,2013-05-25 03:45:00,
2013-05-24 23:46:00,45.9,43.3,29.97,NW,321,3.0,13.0,91,0.01,,,0.16,meteohub,2013-05-25 03:46:00,
2013-05-24 23:47:00,46.0,43.5,29.97,WNW,284,10.0,13.0,91,0.01,,,0.16,meteohub,2013-05-25 03:47:00,
2013-05-24 23:50:00,45.9,43.3,29.97,NW,310,8.0,13.0,91,0.01,,,0.16,meteohub,2013-05-25 03:50:00,
2013-05-24 23:51:00,46.0,43.5,29.96,WNW,292,11.0,16.0,91,0.01,,,0.16,meteohub,2013-05-25 03:51:00,
2013-05-24 23:53:00,45.9,43.3,29.96,WNW,293,8.0,16.0,91,0.01,,,0.16,meteohub,2013-05-25 03:53:00,
2013-05-24 23:55:00,45.9,43.3,29.96,NW,316,9.0,16.0,91,0.01,,,0.16,meteohub,2013-05-25 03:55:00,
2013-05-24 23:56:00,45.9,43.3,29.96,NNW,340,3.0,16.0,91,0.01,,,0.16,meteohub,2013-05-25 03:56:00,
2013-05-24 23:59:00,45.9,43.3,29.96,West,277,8.0,16.0,91,0.01,,,0.16,meteohub,2013-05-25 03:59:00,